<?xml version="1.0" encoding="UTF-8" standalone="no" ?>
<gpx xmlns="http://www.topografix.com/GPX/1/1" xmlns:xsi="http://www.w3.org/2001/XMLSchema-instance" xsi:schemaLocation="http://www.topografix.com/GPX/1/1 http://www.topografix.com/GPX/1/1/gpx.xsd" version="1.1" creator="VisuGPX - https://www.visugpx.com">
  <metadata>
    <name>GEMENOS Le sentier du Limbert</name>
    <desc><![CDATA[Départ de l'arrêt de Bus ligne 7 Aubagne Gémenos centre
Balisage jaune]]></desc>
  </metadata>
  <trk>
    <name><![CDATA[sentier Limbert1]]></name>
    <desc><![CDATA[À partir de la Piste Active]]></desc>
    <trkseg>
      <trkpt lat="43.29708" lon="5.62912">
        <ele>155.296875</ele>
        <time>2017-03-25T11:48:31Z</time>
      </trkpt>
      <trkpt lat="43.29706" lon="5.629">
        <ele>148.699219</ele>
        <time>2017-03-25T11:49:51Z</time>
      </trkpt>
      <trkpt lat="43.29701" lon="5.62889">
        <ele>154.296875</ele>
        <time>2017-03-25T11:49:59Z</time>
      </trkpt>
      <trkpt lat="43.29694" lon="5.62879">
        <ele>157.097656</ele>
        <time>2017-03-25T11:50:06Z</time>
      </trkpt>
      <trkpt lat="43.29686" lon="5.62871">
        <ele>159.097656</ele>
        <time>2017-03-25T11:50:13Z</time>
      </trkpt>
      <trkpt lat="43.29679" lon="5.62863">
        <ele>161</ele>
        <time>2017-03-25T11:50:19Z</time>
      </trkpt>
      <trkpt lat="43.2967" lon="5.62867">
        <ele>160.097656</ele>
        <time>2017-03-25T11:50:31Z</time>
      </trkpt>
      <trkpt lat="43.29664" lon="5.62875">
        <ele>161.097656</ele>
        <time>2017-03-25T11:50:44Z</time>
      </trkpt>
      <trkpt lat="43.29658" lon="5.62885">
        <ele>159.671875</ele>
        <time>2017-03-25T11:50:51Z</time>
      </trkpt>
      <trkpt lat="43.29657" lon="5.62897">
        <ele>153.097656</ele>
        <time>2017-03-25T11:51:02Z</time>
      </trkpt>
      <trkpt lat="43.2965" lon="5.62907">
        <ele>151.097656</ele>
        <time>2017-03-25T11:51:07Z</time>
      </trkpt>
      <trkpt lat="43.29647" lon="5.62919">
        <ele>151.898438</ele>
        <time>2017-03-25T11:51:15Z</time>
      </trkpt>
      <trkpt lat="43.2964" lon="5.62927">
        <ele>145.699219</ele>
        <time>2017-03-25T11:51:24Z</time>
      </trkpt>
      <trkpt lat="43.29631" lon="5.62931">
        <ele>142.5</ele>
        <time>2017-03-25T11:51:34Z</time>
      </trkpt>
      <trkpt lat="43.29622" lon="5.62929">
        <ele>146.296875</ele>
        <time>2017-03-25T11:51:44Z</time>
      </trkpt>
      <trkpt lat="43.29613" lon="5.62929">
        <ele>154.796875</ele>
        <time>2017-03-25T11:51:51Z</time>
      </trkpt>
      <trkpt lat="43.29603" lon="5.62924">
        <ele>163.699219</ele>
        <time>2017-03-25T11:51:59Z</time>
      </trkpt>
      <trkpt lat="43.29594" lon="5.62923">
        <ele>160.199219</ele>
        <time>2017-03-25T11:52:11Z</time>
      </trkpt>
      <trkpt lat="43.29586" lon="5.6293">
        <ele>159.699219</ele>
        <time>2017-03-25T11:52:24Z</time>
      </trkpt>
      <trkpt lat="43.29577" lon="5.62942">
        <ele>161.398438</ele>
        <time>2017-03-25T11:52:48Z</time>
      </trkpt>
      <trkpt lat="43.29575" lon="5.62955">
        <ele>161.296875</ele>
        <time>2017-03-25T11:53:07Z</time>
      </trkpt>
      <trkpt lat="43.29572" lon="5.62967">
        <ele>166</ele>
        <time>2017-03-25T11:53:33Z</time>
      </trkpt>
      <trkpt lat="43.29566" lon="5.62976">
        <ele>169.097656</ele>
        <time>2017-03-25T11:53:49Z</time>
      </trkpt>
      <trkpt lat="43.2956" lon="5.62988">
        <ele>169.5</ele>
        <time>2017-03-25T11:54:12Z</time>
      </trkpt>
      <trkpt lat="43.29551" lon="5.6299">
        <ele>166.296875</ele>
        <time>2017-03-25T11:54:22Z</time>
      </trkpt>
      <trkpt lat="43.29542" lon="5.62996">
        <ele>166.699219</ele>
        <time>2017-03-25T11:54:33Z</time>
      </trkpt>
      <trkpt lat="43.29535" lon="5.63004">
        <ele>168.199219</ele>
        <time>2017-03-25T11:54:45Z</time>
      </trkpt>
      <trkpt lat="43.29522" lon="5.63022">
        <ele>170.820313</ele>
        <time>2017-03-25T11:55:03Z</time>
      </trkpt>
      <trkpt lat="43.29514" lon="5.63029">
        <ele>167</ele>
        <time>2017-03-25T11:55:17Z</time>
      </trkpt>
      <trkpt lat="43.2952" lon="5.63041">
        <ele>162.5</ele>
        <time>2017-03-25T11:55:50Z</time>
      </trkpt>
      <trkpt lat="43.29529" lon="5.63042">
        <ele>159.199219</ele>
        <time>2017-03-25T11:56:00Z</time>
      </trkpt>
      <trkpt lat="43.2954" lon="5.63043">
        <ele>160.398438</ele>
        <time>2017-03-25T11:56:13Z</time>
      </trkpt>
      <trkpt lat="43.29549" lon="5.63045">
        <ele>161.5</ele>
        <time>2017-03-25T11:56:23Z</time>
      </trkpt>
      <trkpt lat="43.29559" lon="5.63047">
        <ele>164.308594</ele>
        <time>2017-03-25T11:56:32Z</time>
      </trkpt>
      <trkpt lat="43.29565" lon="5.63056">
        <ele>172.699219</ele>
        <time>2017-03-25T11:56:55Z</time>
      </trkpt>
      <trkpt lat="43.29566" lon="5.6308">
        <ele>177.402344</ele>
        <time>2017-03-25T11:57:20Z</time>
      </trkpt>
      <trkpt lat="43.29562" lon="5.63092">
        <ele>190.898438</ele>
        <time>2017-03-25T11:57:49Z</time>
      </trkpt>
      <trkpt lat="43.29548" lon="5.63111">
        <ele>191</ele>
        <time>2017-03-25T11:58:24Z</time>
      </trkpt>
      <trkpt lat="43.29539" lon="5.63112">
        <ele>195.398438</ele>
        <time>2017-03-25T11:58:35Z</time>
      </trkpt>
      <trkpt lat="43.29527" lon="5.63115">
        <ele>196.699219</ele>
        <time>2017-03-25T11:58:55Z</time>
      </trkpt>
      <trkpt lat="43.29508" lon="5.63117">
        <ele>196</ele>
        <time>2017-03-25T11:59:12Z</time>
      </trkpt>
      <trkpt lat="43.29499" lon="5.63118">
        <ele>195.296875</ele>
        <time>2017-03-25T11:59:23Z</time>
      </trkpt>
      <trkpt lat="43.2949" lon="5.63121">
        <ele>193.597656</ele>
        <time>2017-03-25T11:59:32Z</time>
      </trkpt>
      <trkpt lat="43.29434" lon="5.63138">
        <ele>191.296875</ele>
        <time>2017-03-25T12:00:30Z</time>
      </trkpt>
      <trkpt lat="43.29424" lon="5.63144">
        <ele>191.796875</ele>
        <time>2017-03-25T12:00:37Z</time>
      </trkpt>
      <trkpt lat="43.29415" lon="5.63146">
        <ele>191.597656</ele>
        <time>2017-03-25T12:00:45Z</time>
      </trkpt>
      <trkpt lat="43.29396" lon="5.63151">
        <ele>187.699219</ele>
        <time>2017-03-25T12:01:00Z</time>
      </trkpt>
      <trkpt lat="43.29367" lon="5.63155">
        <ele>191.296875</ele>
        <time>2017-03-25T12:01:22Z</time>
      </trkpt>
      <trkpt lat="43.29358" lon="5.63159">
        <ele>192.699219</ele>
        <time>2017-03-25T12:01:29Z</time>
      </trkpt>
      <trkpt lat="43.29349" lon="5.63162">
        <ele>194.898438</ele>
        <time>2017-03-25T12:01:36Z</time>
      </trkpt>
      <trkpt lat="43.29341" lon="5.63169">
        <ele>197.597656</ele>
        <time>2017-03-25T12:01:45Z</time>
      </trkpt>
      <trkpt lat="43.29336" lon="5.6318">
        <ele>199.597656</ele>
        <time>2017-03-25T12:01:55Z</time>
      </trkpt>
      <trkpt lat="43.29331" lon="5.63191">
        <ele>200.597656</ele>
        <time>2017-03-25T12:02:04Z</time>
      </trkpt>
      <trkpt lat="43.29327" lon="5.63205">
        <ele>200.898438</ele>
        <time>2017-03-25T12:02:23Z</time>
      </trkpt>
      <trkpt lat="43.29321" lon="5.6323">
        <ele>198.199219</ele>
        <time>2017-03-25T12:02:44Z</time>
      </trkpt>
      <trkpt lat="43.29318" lon="5.63242">
        <ele>194.898438</ele>
        <time>2017-03-25T12:02:54Z</time>
      </trkpt>
      <trkpt lat="43.29316" lon="5.63268">
        <ele>190.796875</ele>
        <time>2017-03-25T12:03:13Z</time>
      </trkpt>
      <trkpt lat="43.29315" lon="5.63282">
        <ele>190.398438</ele>
        <time>2017-03-25T12:03:21Z</time>
      </trkpt>
      <trkpt lat="43.29313" lon="5.63295">
        <ele>189.199219</ele>
        <time>2017-03-25T12:03:28Z</time>
      </trkpt>
      <trkpt lat="43.29312" lon="5.63308">
        <ele>187.398438</ele>
        <time>2017-03-25T12:03:36Z</time>
      </trkpt>
      <trkpt lat="43.2931" lon="5.63321">
        <ele>184.5</ele>
        <time>2017-03-25T12:03:44Z</time>
      </trkpt>
      <trkpt lat="43.29309" lon="5.63334">
        <ele>184.597656</ele>
        <time>2017-03-25T12:03:53Z</time>
      </trkpt>
      <trkpt lat="43.29308" lon="5.63347">
        <ele>185.199219</ele>
        <time>2017-03-25T12:04:01Z</time>
      </trkpt>
      <trkpt lat="43.29304" lon="5.63373">
        <ele>184</ele>
        <time>2017-03-25T12:04:17Z</time>
      </trkpt>
      <trkpt lat="43.29302" lon="5.63385">
        <ele>182</ele>
        <time>2017-03-25T12:04:25Z</time>
      </trkpt>
      <trkpt lat="43.29301" lon="5.63398">
        <ele>180</ele>
        <time>2017-03-25T12:04:32Z</time>
      </trkpt>
      <trkpt lat="43.293" lon="5.6341">
        <ele>178.097656</ele>
        <time>2017-03-25T12:04:40Z</time>
      </trkpt>
      <trkpt lat="43.29291" lon="5.6341">
        <ele>176.898438</ele>
        <time>2017-03-25T12:04:56Z</time>
      </trkpt>
      <trkpt lat="43.29283" lon="5.63402">
        <ele>181.085938</ele>
        <time>2017-03-25T12:05:07Z</time>
      </trkpt>
      <trkpt lat="43.29275" lon="5.63395">
        <ele>186.398438</ele>
        <time>2017-03-25T12:05:24Z</time>
      </trkpt>
      <trkpt lat="43.29268" lon="5.63387">
        <ele>185.296875</ele>
        <time>2017-03-25T12:05:43Z</time>
      </trkpt>
      <trkpt lat="43.29262" lon="5.63378">
        <ele>185.097656</ele>
        <time>2017-03-25T12:05:54Z</time>
      </trkpt>
      <trkpt lat="43.29254" lon="5.63371">
        <ele>185.5</ele>
        <time>2017-03-25T12:06:06Z</time>
      </trkpt>
      <trkpt lat="43.29245" lon="5.63365">
        <ele>186.199219</ele>
        <time>2017-03-25T12:06:16Z</time>
      </trkpt>
      <trkpt lat="43.29236" lon="5.63361">
        <ele>186.597656</ele>
        <time>2017-03-25T12:06:24Z</time>
      </trkpt>
      <trkpt lat="43.29227" lon="5.6336">
        <ele>184.898438</ele>
        <time>2017-03-25T12:06:31Z</time>
      </trkpt>
      <trkpt lat="43.29217" lon="5.63361">
        <ele>183.199219</ele>
        <time>2017-03-25T12:06:39Z</time>
      </trkpt>
      <trkpt lat="43.29208" lon="5.63365">
        <ele>184.296875</ele>
        <time>2017-03-25T12:06:46Z</time>
      </trkpt>
      <trkpt lat="43.292" lon="5.63368">
        <ele>186.398438</ele>
        <time>2017-03-25T12:06:52Z</time>
      </trkpt>
      <trkpt lat="43.29191" lon="5.63375">
        <ele>183.898438</ele>
        <time>2017-03-25T12:07:00Z</time>
      </trkpt>
      <trkpt lat="43.29183" lon="5.63381">
        <ele>180.699219</ele>
        <time>2017-03-25T12:07:09Z</time>
      </trkpt>
      <trkpt lat="43.29174" lon="5.63386">
        <ele>180.597656</ele>
        <time>2017-03-25T12:07:18Z</time>
      </trkpt>
      <trkpt lat="43.29166" lon="5.63393">
        <ele>179.699219</ele>
        <time>2017-03-25T12:07:26Z</time>
      </trkpt>
      <trkpt lat="43.2916" lon="5.63402">
        <ele>179.097656</ele>
        <time>2017-03-25T12:07:33Z</time>
      </trkpt>
      <trkpt lat="43.29152" lon="5.6341">
        <ele>179.898438</ele>
        <time>2017-03-25T12:07:41Z</time>
      </trkpt>
      <trkpt lat="43.29139" lon="5.63428">
        <ele>179.5</ele>
        <time>2017-03-25T12:07:55Z</time>
      </trkpt>
      <trkpt lat="43.29126" lon="5.63448">
        <ele>179.097656</ele>
        <time>2017-03-25T12:08:11Z</time>
      </trkpt>
      <trkpt lat="43.29119" lon="5.63459">
        <ele>180.398438</ele>
        <time>2017-03-25T12:08:19Z</time>
      </trkpt>
      <trkpt lat="43.29108" lon="5.6348">
        <ele>181.398438</ele>
        <time>2017-03-25T12:08:34Z</time>
      </trkpt>
      <trkpt lat="43.29102" lon="5.63492">
        <ele>182.898438</ele>
        <time>2017-03-25T12:08:42Z</time>
      </trkpt>
      <trkpt lat="43.29098" lon="5.63504">
        <ele>183.898438</ele>
        <time>2017-03-25T12:08:50Z</time>
      </trkpt>
      <trkpt lat="43.29095" lon="5.63516">
        <ele>184.097656</ele>
        <time>2017-03-25T12:08:58Z</time>
      </trkpt>
      <trkpt lat="43.29094" lon="5.63528">
        <ele>185</ele>
        <time>2017-03-25T12:09:06Z</time>
      </trkpt>
      <trkpt lat="43.29093" lon="5.63555">
        <ele>187</ele>
        <time>2017-03-25T12:09:23Z</time>
      </trkpt>
      <trkpt lat="43.29089" lon="5.63567">
        <ele>190.296875</ele>
        <time>2017-03-25T12:09:32Z</time>
      </trkpt>
      <trkpt lat="43.29081" lon="5.63575">
        <ele>193.398438</ele>
        <time>2017-03-25T12:09:43Z</time>
      </trkpt>
      <trkpt lat="43.29073" lon="5.6358">
        <ele>195</ele>
        <time>2017-03-25T12:09:55Z</time>
      </trkpt>
      <trkpt lat="43.29056" lon="5.6359">
        <ele>195.699219</ele>
        <time>2017-03-25T12:10:17Z</time>
      </trkpt>
      <trkpt lat="43.29049" lon="5.63599">
        <ele>196.597656</ele>
        <time>2017-03-25T12:10:27Z</time>
      </trkpt>
      <trkpt lat="43.29043" lon="5.63609">
        <ele>200.5</ele>
        <time>2017-03-25T12:10:37Z</time>
      </trkpt>
      <trkpt lat="43.29038" lon="5.6362">
        <ele>202.796875</ele>
        <time>2017-03-25T12:10:51Z</time>
      </trkpt>
      <trkpt lat="43.29035" lon="5.63637">
        <ele>201.796875</ele>
        <time>2017-03-25T12:11:38Z</time>
      </trkpt>
      <trkpt lat="43.29034" lon="5.6365">
        <ele>201.597656</ele>
        <time>2017-03-25T12:11:50Z</time>
      </trkpt>
      <trkpt lat="43.29032" lon="5.6369">
        <ele>203.597656</ele>
        <time>2017-03-25T12:12:21Z</time>
      </trkpt>
      <trkpt lat="43.29032" lon="5.63703">
        <ele>203.699219</ele>
        <time>2017-03-25T12:12:31Z</time>
      </trkpt>
      <trkpt lat="43.29032" lon="5.63716">
        <ele>206.097656</ele>
        <time>2017-03-25T12:12:41Z</time>
      </trkpt>
      <trkpt lat="43.29026" lon="5.63833">
        <ele>213.398438</ele>
        <time>2017-03-25T12:14:09Z</time>
      </trkpt>
      <trkpt lat="43.29024" lon="5.63846">
        <ele>216</ele>
        <time>2017-03-25T12:14:18Z</time>
      </trkpt>
      <trkpt lat="43.29018" lon="5.63884">
        <ele>223.199219</ele>
        <time>2017-03-25T12:14:47Z</time>
      </trkpt>
      <trkpt lat="43.29017" lon="5.63897">
        <ele>225.398438</ele>
        <time>2017-03-25T12:14:56Z</time>
      </trkpt>
      <trkpt lat="43.2902" lon="5.63909">
        <ele>224.898438</ele>
        <time>2017-03-25T12:15:06Z</time>
      </trkpt>
      <trkpt lat="43.29022" lon="5.63922">
        <ele>221.5</ele>
        <time>2017-03-25T12:15:16Z</time>
      </trkpt>
      <trkpt lat="43.29027" lon="5.63934">
        <ele>220.5</ele>
        <time>2017-03-25T12:15:26Z</time>
      </trkpt>
      <trkpt lat="43.29028" lon="5.63947">
        <ele>221.296875</ele>
        <time>2017-03-25T12:15:37Z</time>
      </trkpt>
      <trkpt lat="43.29023" lon="5.63958">
        <ele>225</ele>
        <time>2017-03-25T12:15:49Z</time>
      </trkpt>
      <trkpt lat="43.29015" lon="5.63965">
        <ele>228.097656</ele>
        <time>2017-03-25T12:16:00Z</time>
      </trkpt>
      <trkpt lat="43.29005" lon="5.63969">
        <ele>229</ele>
        <time>2017-03-25T12:16:10Z</time>
      </trkpt>
      <trkpt lat="43.28996" lon="5.63973">
        <ele>229</ele>
        <time>2017-03-25T12:16:20Z</time>
      </trkpt>
      <trkpt lat="43.28987" lon="5.63978">
        <ele>231</ele>
        <time>2017-03-25T12:16:30Z</time>
      </trkpt>
      <trkpt lat="43.28982" lon="5.63989">
        <ele>234.199219</ele>
        <time>2017-03-25T12:16:41Z</time>
      </trkpt>
      <trkpt lat="43.28986" lon="5.64">
        <ele>233.296875</ele>
        <time>2017-03-25T12:16:52Z</time>
      </trkpt>
      <trkpt lat="43.28992" lon="5.6401">
        <ele>232.296875</ele>
        <time>2017-03-25T12:17:04Z</time>
      </trkpt>
      <trkpt lat="43.29" lon="5.64017">
        <ele>231.796875</ele>
        <time>2017-03-25T12:17:16Z</time>
      </trkpt>
      <trkpt lat="43.29009" lon="5.64021">
        <ele>233.699219</ele>
        <time>2017-03-25T12:17:27Z</time>
      </trkpt>
      <trkpt lat="43.29045" lon="5.64036">
        <ele>239.097656</ele>
        <time>2017-03-25T12:18:06Z</time>
      </trkpt>
      <trkpt lat="43.29072" lon="5.64046">
        <ele>242.597656</ele>
        <time>2017-03-25T12:18:33Z</time>
      </trkpt>
      <trkpt lat="43.29081" lon="5.64052">
        <ele>244.398438</ele>
        <time>2017-03-25T12:18:43Z</time>
      </trkpt>
      <trkpt lat="43.29088" lon="5.6406">
        <ele>247.398438</ele>
        <time>2017-03-25T12:18:54Z</time>
      </trkpt>
      <trkpt lat="43.29085" lon="5.64072">
        <ele>247.097656</ele>
        <time>2017-03-25T12:19:06Z</time>
      </trkpt>
      <trkpt lat="43.29078" lon="5.6408">
        <ele>248.199219</ele>
        <time>2017-03-25T12:19:26Z</time>
      </trkpt>
      <trkpt lat="43.29047" lon="5.64109">
        <ele>254.796875</ele>
        <time>2017-03-25T12:20:09Z</time>
      </trkpt>
      <trkpt lat="43.29039" lon="5.64116">
        <ele>255.597656</ele>
        <time>2017-03-25T12:20:21Z</time>
      </trkpt>
      <trkpt lat="43.2903" lon="5.64121">
        <ele>256.097656</ele>
        <time>2017-03-25T12:20:34Z</time>
      </trkpt>
      <trkpt lat="43.29022" lon="5.64128">
        <ele>256.199219</ele>
        <time>2017-03-25T12:20:46Z</time>
      </trkpt>
      <trkpt lat="43.29015" lon="5.64135">
        <ele>259.199219</ele>
        <time>2017-03-25T12:20:59Z</time>
      </trkpt>
      <trkpt lat="43.29006" lon="5.64147">
        <ele>260.199219</ele>
        <time>2017-03-25T12:21:17Z</time>
      </trkpt>
      <trkpt lat="43.29" lon="5.64156">
        <ele>263.296875</ele>
        <time>2017-03-25T12:21:28Z</time>
      </trkpt>
      <trkpt lat="43.28995" lon="5.64168">
        <ele>266.699219</ele>
        <time>2017-03-25T12:21:42Z</time>
      </trkpt>
      <trkpt lat="43.28987" lon="5.6419">
        <ele>275.097656</ele>
        <time>2017-03-25T12:22:09Z</time>
      </trkpt>
      <trkpt lat="43.28974" lon="5.64191">
        <ele>275.398438</ele>
        <time>2017-03-25T12:23:32Z</time>
      </trkpt>
      <trkpt lat="43.2897" lon="5.64203">
        <ele>277.597656</ele>
        <time>2017-03-25T12:23:45Z</time>
      </trkpt>
      <trkpt lat="43.28967" lon="5.64215">
        <ele>280.199219</ele>
        <time>2017-03-25T12:23:57Z</time>
      </trkpt>
      <trkpt lat="43.28961" lon="5.64225">
        <ele>281.796875</ele>
        <time>2017-03-25T12:24:09Z</time>
      </trkpt>
      <trkpt lat="43.28955" lon="5.64235">
        <ele>282</ele>
        <time>2017-03-25T12:24:21Z</time>
      </trkpt>
      <trkpt lat="43.28948" lon="5.64243">
        <ele>283.898438</ele>
        <time>2017-03-25T12:24:33Z</time>
      </trkpt>
      <trkpt lat="43.2894" lon="5.6425">
        <ele>284.597656</ele>
        <time>2017-03-25T12:24:45Z</time>
      </trkpt>
      <trkpt lat="43.28932" lon="5.64256">
        <ele>283.796875</ele>
        <time>2017-03-25T12:24:56Z</time>
      </trkpt>
      <trkpt lat="43.28923" lon="5.64259">
        <ele>283.898438</ele>
        <time>2017-03-25T12:25:08Z</time>
      </trkpt>
      <trkpt lat="43.28912" lon="5.64259">
        <ele>286.597656</ele>
        <time>2017-03-25T12:25:22Z</time>
      </trkpt>
      <trkpt lat="43.28904" lon="5.64256">
        <ele>288.597656</ele>
        <time>2017-03-25T12:25:35Z</time>
      </trkpt>
      <trkpt lat="43.28895" lon="5.64252">
        <ele>289.199219</ele>
        <time>2017-03-25T12:25:50Z</time>
      </trkpt>
      <trkpt lat="43.28886" lon="5.64255">
        <ele>289.398438</ele>
        <time>2017-03-25T12:26:01Z</time>
      </trkpt>
      <trkpt lat="43.28877" lon="5.64261">
        <ele>289.296875</ele>
        <time>2017-03-25T12:26:11Z</time>
      </trkpt>
      <trkpt lat="43.28869" lon="5.64266">
        <ele>288.296875</ele>
        <time>2017-03-25T12:26:20Z</time>
      </trkpt>
      <trkpt lat="43.2886" lon="5.64268">
        <ele>288</ele>
        <time>2017-03-25T12:26:30Z</time>
      </trkpt>
      <trkpt lat="43.28824" lon="5.64284">
        <ele>288.398438</ele>
        <time>2017-03-25T12:27:06Z</time>
      </trkpt>
      <trkpt lat="43.28816" lon="5.6429">
        <ele>289.199219</ele>
        <time>2017-03-25T12:27:14Z</time>
      </trkpt>
      <trkpt lat="43.28799" lon="5.64301">
        <ele>292.597656</ele>
        <time>2017-03-25T12:27:33Z</time>
      </trkpt>
      <trkpt lat="43.28781" lon="5.6431">
        <ele>295.898438</ele>
        <time>2017-03-25T12:27:54Z</time>
      </trkpt>
      <trkpt lat="43.28734" lon="5.6435">
        <ele>303.796875</ele>
        <time>2017-03-25T12:30:50Z</time>
      </trkpt>
      <trkpt lat="43.28733" lon="5.64349">
        <ele>308.191406</ele>
        <time>2017-03-25T12:30:59Z</time>
      </trkpt>
      <trkpt lat="43.28725" lon="5.64323">
        <ele>343.5</ele>
        <time>2017-03-25T13:03:16Z</time>
      </trkpt>
      <trkpt lat="43.28728" lon="5.64335">
        <ele>313.097656</ele>
        <time>2017-03-25T13:03:18Z</time>
      </trkpt>
      <trkpt lat="43.28725" lon="5.64347">
        <ele>309.199219</ele>
        <time>2017-03-25T13:03:34Z</time>
      </trkpt>
      <trkpt lat="43.28719" lon="5.64357">
        <ele>312</ele>
        <time>2017-03-25T13:04:02Z</time>
      </trkpt>
      <trkpt lat="43.28711" lon="5.64363">
        <ele>315.097656</ele>
        <time>2017-03-25T13:04:16Z</time>
      </trkpt>
      <trkpt lat="43.28702" lon="5.64368">
        <ele>320.097656</ele>
        <time>2017-03-25T13:04:27Z</time>
      </trkpt>
      <trkpt lat="43.28695" lon="5.64377">
        <ele>322.898438</ele>
        <time>2017-03-25T13:04:42Z</time>
      </trkpt>
      <trkpt lat="43.28689" lon="5.64393">
        <ele>325.199219</ele>
        <time>2017-03-25T13:05:03Z</time>
      </trkpt>
      <trkpt lat="43.28686" lon="5.64406">
        <ele>324.546875</ele>
        <time>2017-03-25T13:05:15Z</time>
      </trkpt>
      <trkpt lat="43.28679" lon="5.64414">
        <ele>322.597656</ele>
        <time>2017-03-25T13:05:33Z</time>
      </trkpt>
      <trkpt lat="43.28678" lon="5.64427">
        <ele>319.898438</ele>
        <time>2017-03-25T13:06:15Z</time>
      </trkpt>
      <trkpt lat="43.28677" lon="5.64439">
        <ele>318.597656</ele>
        <time>2017-03-25T13:06:31Z</time>
      </trkpt>
      <trkpt lat="43.28671" lon="5.6445">
        <ele>319.699219</ele>
        <time>2017-03-25T13:06:42Z</time>
      </trkpt>
      <trkpt lat="43.28664" lon="5.6446">
        <ele>324.097656</ele>
        <time>2017-03-25T13:06:51Z</time>
      </trkpt>
      <trkpt lat="43.28665" lon="5.64473">
        <ele>324.296875</ele>
        <time>2017-03-25T13:07:04Z</time>
      </trkpt>
      <trkpt lat="43.28665" lon="5.64485">
        <ele>323.796875</ele>
        <time>2017-03-25T13:07:35Z</time>
      </trkpt>
      <trkpt lat="43.28664" lon="5.64499">
        <ele>325.597656</ele>
        <time>2017-03-25T13:07:50Z</time>
      </trkpt>
      <trkpt lat="43.28659" lon="5.64509">
        <ele>328.476563</ele>
        <time>2017-03-25T13:08:02Z</time>
      </trkpt>
      <trkpt lat="43.28655" lon="5.6452">
        <ele>330.152344</ele>
        <time>2017-03-25T13:08:19Z</time>
      </trkpt>
      <trkpt lat="43.28642" lon="5.64556">
        <ele>333</ele>
        <time>2017-03-25T13:08:56Z</time>
      </trkpt>
      <trkpt lat="43.28639" lon="5.64569">
        <ele>334.097656</ele>
        <time>2017-03-25T13:09:07Z</time>
      </trkpt>
      <trkpt lat="43.28638" lon="5.64581">
        <ele>335.097656</ele>
        <time>2017-03-25T13:09:17Z</time>
      </trkpt>
      <trkpt lat="43.28636" lon="5.64595">
        <ele>337.597656</ele>
        <time>2017-03-25T13:09:27Z</time>
      </trkpt>
      <trkpt lat="43.28636" lon="5.64609">
        <ele>340.898438</ele>
        <time>2017-03-25T13:09:37Z</time>
      </trkpt>
      <trkpt lat="43.28634" lon="5.64621">
        <ele>343.199219</ele>
        <time>2017-03-25T13:09:46Z</time>
      </trkpt>
      <trkpt lat="43.28634" lon="5.64635">
        <ele>343.898438</ele>
        <time>2017-03-25T13:09:56Z</time>
      </trkpt>
      <trkpt lat="43.28635" lon="5.64647">
        <ele>344.796875</ele>
        <time>2017-03-25T13:10:06Z</time>
      </trkpt>
      <trkpt lat="43.28634" lon="5.6466">
        <ele>342.597656</ele>
        <time>2017-03-25T13:10:17Z</time>
      </trkpt>
      <trkpt lat="43.28632" lon="5.64673">
        <ele>341.5</ele>
        <time>2017-03-25T13:10:27Z</time>
      </trkpt>
      <trkpt lat="43.28629" lon="5.64687">
        <ele>345.699219</ele>
        <time>2017-03-25T13:10:46Z</time>
      </trkpt>
      <trkpt lat="43.28621" lon="5.64692">
        <ele>349.632813</ele>
        <time>2017-03-25T13:11:03Z</time>
      </trkpt>
      <trkpt lat="43.28612" lon="5.6469">
        <ele>355.398438</ele>
        <time>2017-03-25T13:11:29Z</time>
      </trkpt>
      <trkpt lat="43.28594" lon="5.64682">
        <ele>357.546875</ele>
        <time>2017-03-25T13:11:55Z</time>
      </trkpt>
      <trkpt lat="43.28585" lon="5.64679">
        <ele>361.398438</ele>
        <time>2017-03-25T13:12:10Z</time>
      </trkpt>
      <trkpt lat="43.28576" lon="5.64678">
        <ele>359.796875</ele>
        <time>2017-03-25T13:12:46Z</time>
      </trkpt>
      <trkpt lat="43.28566" lon="5.6468">
        <ele>357.199219</ele>
        <time>2017-03-25T13:13:05Z</time>
      </trkpt>
      <trkpt lat="43.28557" lon="5.64683">
        <ele>359.296875</ele>
        <time>2017-03-25T13:13:17Z</time>
      </trkpt>
      <trkpt lat="43.28548" lon="5.64684">
        <ele>357.898438</ele>
        <time>2017-03-25T13:13:31Z</time>
      </trkpt>
      <trkpt lat="43.28538" lon="5.64685">
        <ele>356.796875</ele>
        <time>2017-03-25T13:13:44Z</time>
      </trkpt>
      <trkpt lat="43.28528" lon="5.64687">
        <ele>355.699219</ele>
        <time>2017-03-25T13:13:56Z</time>
      </trkpt>
      <trkpt lat="43.28519" lon="5.6469">
        <ele>355.597656</ele>
        <time>2017-03-25T13:14:16Z</time>
      </trkpt>
      <trkpt lat="43.2851" lon="5.64695">
        <ele>355.398438</ele>
        <time>2017-03-25T13:14:28Z</time>
      </trkpt>
      <trkpt lat="43.28495" lon="5.64696">
        <ele>356.296875</ele>
        <time>2017-03-25T13:14:48Z</time>
      </trkpt>
      <trkpt lat="43.28483" lon="5.64699">
        <ele>357.199219</ele>
        <time>2017-03-25T13:15:03Z</time>
      </trkpt>
      <trkpt lat="43.28455" lon="5.64706">
        <ele>357.097656</ele>
        <time>2017-03-25T13:15:35Z</time>
      </trkpt>
      <trkpt lat="43.28446" lon="5.64712">
        <ele>357</ele>
        <time>2017-03-25T13:15:46Z</time>
      </trkpt>
      <trkpt lat="43.28437" lon="5.64716">
        <ele>359.5</ele>
        <time>2017-03-25T13:15:57Z</time>
      </trkpt>
      <trkpt lat="43.28429" lon="5.64722">
        <ele>364.949219</ele>
        <time>2017-03-25T13:16:08Z</time>
      </trkpt>
      <trkpt lat="43.28421" lon="5.64727">
        <ele>368.398438</ele>
        <time>2017-03-25T13:16:22Z</time>
      </trkpt>
      <trkpt lat="43.28412" lon="5.64731">
        <ele>370.597656</ele>
        <time>2017-03-25T13:16:33Z</time>
      </trkpt>
      <trkpt lat="43.28394" lon="5.64738">
        <ele>378.796875</ele>
        <time>2017-03-25T13:17:26Z</time>
      </trkpt>
      <trkpt lat="43.28386" lon="5.64745">
        <ele>376.199219</ele>
        <time>2017-03-25T13:18:32Z</time>
      </trkpt>
      <trkpt lat="43.28377" lon="5.64745">
        <ele>377.898438</ele>
        <time>2017-03-25T13:19:18Z</time>
      </trkpt>
      <trkpt lat="43.28368" lon="5.64747">
        <ele>379.296875</ele>
        <time>2017-03-25T13:19:33Z</time>
      </trkpt>
      <trkpt lat="43.2836" lon="5.64753">
        <ele>381</ele>
        <time>2017-03-25T13:19:49Z</time>
      </trkpt>
      <trkpt lat="43.28353" lon="5.64762">
        <ele>383.796875</ele>
        <time>2017-03-25T13:20:03Z</time>
      </trkpt>
      <trkpt lat="43.28344" lon="5.64767">
        <ele>384.898438</ele>
        <time>2017-03-25T13:20:15Z</time>
      </trkpt>
      <trkpt lat="43.28336" lon="5.64774">
        <ele>384.597656</ele>
        <time>2017-03-25T13:20:26Z</time>
      </trkpt>
      <trkpt lat="43.28329" lon="5.64782">
        <ele>387.296875</ele>
        <time>2017-03-25T13:20:37Z</time>
      </trkpt>
      <trkpt lat="43.28316" lon="5.648">
        <ele>388</ele>
        <time>2017-03-25T13:20:59Z</time>
      </trkpt>
      <trkpt lat="43.28309" lon="5.64807">
        <ele>390.398438</ele>
        <time>2017-03-25T13:21:09Z</time>
      </trkpt>
      <trkpt lat="43.28285" lon="5.64827">
        <ele>400.597656</ele>
        <time>2017-03-25T13:21:48Z</time>
      </trkpt>
      <trkpt lat="43.28276" lon="5.64832">
        <ele>399.398438</ele>
        <time>2017-03-25T13:22:00Z</time>
      </trkpt>
      <trkpt lat="43.28267" lon="5.64834">
        <ele>399.898438</ele>
        <time>2017-03-25T13:22:11Z</time>
      </trkpt>
      <trkpt lat="43.2824" lon="5.64844">
        <ele>403.730469</ele>
        <time>2017-03-25T13:22:46Z</time>
      </trkpt>
      <trkpt lat="43.28231" lon="5.64848">
        <ele>406.097656</ele>
        <time>2017-03-25T13:23:00Z</time>
      </trkpt>
      <trkpt lat="43.28222" lon="5.64846">
        <ele>414.421875</ele>
        <time>2017-03-25T13:23:15Z</time>
      </trkpt>
      <trkpt lat="43.28222" lon="5.64833">
        <ele>419.796875</ele>
        <time>2017-03-25T13:23:48Z</time>
      </trkpt>
      <trkpt lat="43.28224" lon="5.64817">
        <ele>419.78125</ele>
        <time>2017-03-25T13:23:55Z</time>
      </trkpt>
      <trkpt lat="43.28226" lon="5.64805">
        <ele>420.773438</ele>
        <time>2017-03-25T13:24:15Z</time>
      </trkpt>
      <trkpt lat="43.2823" lon="5.64794">
        <ele>419.296875</ele>
        <time>2017-03-25T13:24:30Z</time>
      </trkpt>
      <trkpt lat="43.28225" lon="5.64783">
        <ele>421.097656</ele>
        <time>2017-03-25T13:24:56Z</time>
      </trkpt>
      <trkpt lat="43.28216" lon="5.64789">
        <ele>421.199219</ele>
        <time>2017-03-25T13:25:11Z</time>
      </trkpt>
      <trkpt lat="43.28209" lon="5.64797">
        <ele>424.898438</ele>
        <time>2017-03-25T13:25:23Z</time>
      </trkpt>
      <trkpt lat="43.28187" lon="5.64822">
        <ele>422.199219</ele>
        <time>2017-03-25T13:25:57Z</time>
      </trkpt>
      <trkpt lat="43.2818" lon="5.64831">
        <ele>423.296875</ele>
        <time>2017-03-25T13:26:07Z</time>
      </trkpt>
      <trkpt lat="43.28173" lon="5.64841">
        <ele>423.898438</ele>
        <time>2017-03-25T13:26:16Z</time>
      </trkpt>
      <trkpt lat="43.28169" lon="5.64851">
        <ele>424</ele>
        <time>2017-03-25T13:26:24Z</time>
      </trkpt>
      <trkpt lat="43.28166" lon="5.64864">
        <ele>423.898438</ele>
        <time>2017-03-25T13:26:33Z</time>
      </trkpt>
      <trkpt lat="43.28166" lon="5.64877">
        <ele>425.597656</ele>
        <time>2017-03-25T13:26:43Z</time>
      </trkpt>
      <trkpt lat="43.28165" lon="5.64891">
        <ele>426.398438</ele>
        <time>2017-03-25T13:26:54Z</time>
      </trkpt>
      <trkpt lat="43.28163" lon="5.64903">
        <ele>427.898438</ele>
        <time>2017-03-25T13:27:04Z</time>
      </trkpt>
      <trkpt lat="43.28158" lon="5.64929">
        <ele>429.898438</ele>
        <time>2017-03-25T13:27:23Z</time>
      </trkpt>
      <trkpt lat="43.28158" lon="5.64942">
        <ele>430.796875</ele>
        <time>2017-03-25T13:27:36Z</time>
      </trkpt>
      <trkpt lat="43.28159" lon="5.64955">
        <ele>430.699219</ele>
        <time>2017-03-25T13:27:45Z</time>
      </trkpt>
      <trkpt lat="43.28158" lon="5.64969">
        <ele>430.898438</ele>
        <time>2017-03-25T13:27:55Z</time>
      </trkpt>
      <trkpt lat="43.28158" lon="5.65009">
        <ele>431.5</ele>
        <time>2017-03-25T13:28:23Z</time>
      </trkpt>
      <trkpt lat="43.28161" lon="5.65021">
        <ele>436.898438</ele>
        <time>2017-03-25T13:28:33Z</time>
      </trkpt>
      <trkpt lat="43.28165" lon="5.6505">
        <ele>437.699219</ele>
        <time>2017-03-25T13:29:10Z</time>
      </trkpt>
      <trkpt lat="43.28173" lon="5.65057">
        <ele>435.296875</ele>
        <time>2017-03-25T13:29:25Z</time>
      </trkpt>
      <trkpt lat="43.28166" lon="5.65066">
        <ele>437.199219</ele>
        <time>2017-03-25T13:31:43Z</time>
      </trkpt>
      <trkpt lat="43.28165" lon="5.6508">
        <ele>435.296875</ele>
        <time>2017-03-25T13:32:47Z</time>
      </trkpt>
      <trkpt lat="43.28163" lon="5.65092">
        <ele>434.597656</ele>
        <time>2017-03-25T13:32:58Z</time>
      </trkpt>
      <trkpt lat="43.28158" lon="5.65103">
        <ele>434.398438</ele>
        <time>2017-03-25T13:33:10Z</time>
      </trkpt>
      <trkpt lat="43.28152" lon="5.65113">
        <ele>434</ele>
        <time>2017-03-25T13:33:20Z</time>
      </trkpt>
      <trkpt lat="43.28159" lon="5.65103">
        <ele>439.199219</ele>
        <time>2017-03-25T13:33:34Z</time>
      </trkpt>
      <trkpt lat="43.28167" lon="5.65108">
        <ele>443.796875</ele>
        <time>2017-03-25T13:33:52Z</time>
      </trkpt>
      <trkpt lat="43.28172" lon="5.65119">
        <ele>445.796875</ele>
        <time>2017-03-25T13:34:25Z</time>
      </trkpt>
      <trkpt lat="43.28172" lon="5.65132">
        <ele>449.5</ele>
        <time>2017-03-25T13:34:40Z</time>
      </trkpt>
      <trkpt lat="43.28171" lon="5.65157">
        <ele>452</ele>
        <time>2017-03-25T13:35:10Z</time>
      </trkpt>
      <trkpt lat="43.2817" lon="5.65171">
        <ele>453.296875</ele>
        <time>2017-03-25T13:35:24Z</time>
      </trkpt>
      <trkpt lat="43.28168" lon="5.65183">
        <ele>454.199219</ele>
        <time>2017-03-25T13:35:36Z</time>
      </trkpt>
      <trkpt lat="43.28144" lon="5.65329">
        <ele>477</ele>
        <time>2017-03-25T13:38:23Z</time>
      </trkpt>
      <trkpt lat="43.28145" lon="5.65342">
        <ele>479.949219</ele>
        <time>2017-03-25T13:38:37Z</time>
      </trkpt>
      <trkpt lat="43.28145" lon="5.65354">
        <ele>482.796875</ele>
        <time>2017-03-25T13:38:53Z</time>
      </trkpt>
      <trkpt lat="43.28143" lon="5.65367">
        <ele>484</ele>
        <time>2017-03-25T13:39:05Z</time>
      </trkpt>
      <trkpt lat="43.2814" lon="5.65379">
        <ele>487.199219</ele>
        <time>2017-03-25T13:39:19Z</time>
      </trkpt>
      <trkpt lat="43.28136" lon="5.6539">
        <ele>486.5</ele>
        <time>2017-03-25T13:39:32Z</time>
      </trkpt>
      <trkpt lat="43.28139" lon="5.65406">
        <ele>488.398438</ele>
        <time>2017-03-25T13:40:29Z</time>
      </trkpt>
      <trkpt lat="43.28145" lon="5.65414">
        <ele>491.199219</ele>
        <time>2017-03-25T13:40:44Z</time>
      </trkpt>
      <trkpt lat="43.28148" lon="5.65426">
        <ele>493.5</ele>
        <time>2017-03-25T13:40:58Z</time>
      </trkpt>
      <trkpt lat="43.28146" lon="5.65439">
        <ele>494.699219</ele>
        <time>2017-03-25T13:41:10Z</time>
      </trkpt>
      <trkpt lat="43.28145" lon="5.65451">
        <ele>495.199219</ele>
        <time>2017-03-25T13:41:21Z</time>
      </trkpt>
      <trkpt lat="43.2814" lon="5.65461">
        <ele>497.398438</ele>
        <time>2017-03-25T13:41:31Z</time>
      </trkpt>
      <trkpt lat="43.28132" lon="5.65468">
        <ele>499.796875</ele>
        <time>2017-03-25T13:41:42Z</time>
      </trkpt>
      <trkpt lat="43.28128" lon="5.65479">
        <ele>501.796875</ele>
        <time>2017-03-25T13:41:53Z</time>
      </trkpt>
      <trkpt lat="43.28124" lon="5.65491">
        <ele>504.597656</ele>
        <time>2017-03-25T13:42:06Z</time>
      </trkpt>
      <trkpt lat="43.28122" lon="5.65504">
        <ele>505.296875</ele>
        <time>2017-03-25T13:42:20Z</time>
      </trkpt>
      <trkpt lat="43.28117" lon="5.65515">
        <ele>507.597656</ele>
        <time>2017-03-25T13:42:32Z</time>
      </trkpt>
      <trkpt lat="43.2811" lon="5.65524">
        <ele>510.097656</ele>
        <time>2017-03-25T13:42:44Z</time>
      </trkpt>
      <trkpt lat="43.28101" lon="5.65529">
        <ele>511.699219</ele>
        <time>2017-03-25T13:42:58Z</time>
      </trkpt>
      <trkpt lat="43.28084" lon="5.65539">
        <ele>515</ele>
        <time>2017-03-25T13:43:22Z</time>
      </trkpt>
      <trkpt lat="43.28077" lon="5.65547">
        <ele>515.296875</ele>
        <time>2017-03-25T13:43:33Z</time>
      </trkpt>
      <trkpt lat="43.28071" lon="5.65557">
        <ele>516.269531</ele>
        <time>2017-03-25T13:43:45Z</time>
      </trkpt>
      <trkpt lat="43.28066" lon="5.65567">
        <ele>514.699219</ele>
        <time>2017-03-25T13:44:08Z</time>
      </trkpt>
      <trkpt lat="43.28059" lon="5.65575">
        <ele>516.238281</ele>
        <time>2017-03-25T13:46:38Z</time>
      </trkpt>
      <trkpt lat="43.28058" lon="5.65588">
        <ele>518.597656</ele>
        <time>2017-03-25T13:46:57Z</time>
      </trkpt>
      <trkpt lat="43.28052" lon="5.65601">
        <ele>521.4375</ele>
        <time>2017-03-25T13:47:15Z</time>
      </trkpt>
      <trkpt lat="43.28045" lon="5.65609">
        <ele>527.796875</ele>
        <time>2017-03-25T13:47:32Z</time>
      </trkpt>
      <trkpt lat="43.28034" lon="5.65618">
        <ele>529.796875</ele>
        <time>2017-03-25T13:47:51Z</time>
      </trkpt>
      <trkpt lat="43.28026" lon="5.65626">
        <ele>532</ele>
        <time>2017-03-25T13:51:21Z</time>
      </trkpt>
      <trkpt lat="43.28025" lon="5.65639">
        <ele>535.097656</ele>
        <time>2017-03-25T13:51:43Z</time>
      </trkpt>
      <trkpt lat="43.28023" lon="5.65651">
        <ele>539.398438</ele>
        <time>2017-03-25T13:51:58Z</time>
      </trkpt>
      <trkpt lat="43.2802" lon="5.65663">
        <ele>540.75</ele>
        <time>2017-03-25T13:52:14Z</time>
      </trkpt>
      <trkpt lat="43.28017" lon="5.65675">
        <ele>540.398438</ele>
        <time>2017-03-25T13:52:30Z</time>
      </trkpt>
      <trkpt lat="43.28012" lon="5.65686">
        <ele>538.398438</ele>
        <time>2017-03-25T13:52:42Z</time>
      </trkpt>
      <trkpt lat="43.28003" lon="5.65692">
        <ele>538</ele>
        <time>2017-03-25T13:52:54Z</time>
      </trkpt>
      <trkpt lat="43.27994" lon="5.65697">
        <ele>538.699219</ele>
        <time>2017-03-25T13:53:03Z</time>
      </trkpt>
      <trkpt lat="43.27986" lon="5.65704">
        <ele>541.097656</ele>
        <time>2017-03-25T13:53:13Z</time>
      </trkpt>
      <trkpt lat="43.27967" lon="5.6572">
        <ele>548.699219</ele>
        <time>2017-03-25T13:53:49Z</time>
      </trkpt>
      <trkpt lat="43.27963" lon="5.65733">
        <ele>550.796875</ele>
        <time>2017-03-25T13:54:07Z</time>
      </trkpt>
      <trkpt lat="43.27964" lon="5.65745">
        <ele>555.296875</ele>
        <time>2017-03-25T13:54:24Z</time>
      </trkpt>
      <trkpt lat="43.27963" lon="5.65758">
        <ele>557.796875</ele>
        <time>2017-03-25T13:54:42Z</time>
      </trkpt>
      <trkpt lat="43.27959" lon="5.65769">
        <ele>565</ele>
        <time>2017-03-25T13:54:57Z</time>
      </trkpt>
      <trkpt lat="43.27947" lon="5.65771">
        <ele>568.097656</ele>
        <time>2017-03-25T13:55:46Z</time>
      </trkpt>
      <trkpt lat="43.27938" lon="5.65773">
        <ele>570.199219</ele>
        <time>2017-03-25T13:55:59Z</time>
      </trkpt>
      <trkpt lat="43.2793" lon="5.6577">
        <ele>569.875</ele>
        <time>2017-03-25T13:56:12Z</time>
      </trkpt>
      <trkpt lat="43.27923" lon="5.65762">
        <ele>570.398438</ele>
        <time>2017-03-25T13:56:49Z</time>
      </trkpt>
      <trkpt lat="43.27921" lon="5.65775">
        <ele>568.699219</ele>
        <time>2017-03-25T14:00:31Z</time>
      </trkpt>
      <trkpt lat="43.27922" lon="5.65788">
        <ele>567.5</ele>
        <time>2017-03-25T14:00:40Z</time>
      </trkpt>
      <trkpt lat="43.27921" lon="5.65814">
        <ele>565.898438</ele>
        <time>2017-03-25T14:00:58Z</time>
      </trkpt>
      <trkpt lat="43.27922" lon="5.65828">
        <ele>566.097656</ele>
        <time>2017-03-25T14:01:08Z</time>
      </trkpt>
      <trkpt lat="43.27927" lon="5.65839">
        <ele>565.699219</ele>
        <time>2017-03-25T14:01:18Z</time>
      </trkpt>
      <trkpt lat="43.27935" lon="5.65845">
        <ele>562.597656</ele>
        <time>2017-03-25T14:01:26Z</time>
      </trkpt>
      <trkpt lat="43.27944" lon="5.65843">
        <ele>559.5</ele>
        <time>2017-03-25T14:01:36Z</time>
      </trkpt>
      <trkpt lat="43.27953" lon="5.65838">
        <ele>555.398438</ele>
        <time>2017-03-25T14:01:46Z</time>
      </trkpt>
      <trkpt lat="43.2796" lon="5.65846">
        <ele>554.597656</ele>
        <time>2017-03-25T14:01:56Z</time>
      </trkpt>
      <trkpt lat="43.27967" lon="5.65855">
        <ele>553.5</ele>
        <time>2017-03-25T14:02:05Z</time>
      </trkpt>
      <trkpt lat="43.27973" lon="5.65865">
        <ele>552.796875</ele>
        <time>2017-03-25T14:02:14Z</time>
      </trkpt>
      <trkpt lat="43.27979" lon="5.65876">
        <ele>552.796875</ele>
        <time>2017-03-25T14:02:23Z</time>
      </trkpt>
      <trkpt lat="43.27982" lon="5.65888">
        <ele>552</ele>
        <time>2017-03-25T14:02:31Z</time>
      </trkpt>
      <trkpt lat="43.27994" lon="5.65938">
        <ele>551.5</ele>
        <time>2017-03-25T14:03:03Z</time>
      </trkpt>
      <trkpt lat="43.27996" lon="5.65951">
        <ele>550.296875</ele>
        <time>2017-03-25T14:03:11Z</time>
      </trkpt>
      <trkpt lat="43.28015" lon="5.66026">
        <ele>549.898438</ele>
        <time>2017-03-25T14:03:58Z</time>
      </trkpt>
      <trkpt lat="43.28019" lon="5.66037">
        <ele>549.597656</ele>
        <time>2017-03-25T14:04:05Z</time>
      </trkpt>
      <trkpt lat="43.28023" lon="5.66048">
        <ele>549.597656</ele>
        <time>2017-03-25T14:04:12Z</time>
      </trkpt>
      <trkpt lat="43.2803" lon="5.66058">
        <ele>550.296875</ele>
        <time>2017-03-25T14:04:20Z</time>
      </trkpt>
      <trkpt lat="43.28045" lon="5.66075">
        <ele>551.5</ele>
        <time>2017-03-25T14:04:36Z</time>
      </trkpt>
      <trkpt lat="43.2805" lon="5.66085">
        <ele>551.398438</ele>
        <time>2017-03-25T14:04:44Z</time>
      </trkpt>
      <trkpt lat="43.28056" lon="5.66097">
        <ele>550.296875</ele>
        <time>2017-03-25T14:04:53Z</time>
      </trkpt>
      <trkpt lat="43.28059" lon="5.66109">
        <ele>548.097656</ele>
        <time>2017-03-25T14:05:01Z</time>
      </trkpt>
      <trkpt lat="43.28062" lon="5.66122">
        <ele>547.5</ele>
        <time>2017-03-25T14:05:13Z</time>
      </trkpt>
      <trkpt lat="43.28063" lon="5.66135">
        <ele>550.199219</ele>
        <time>2017-03-25T14:05:22Z</time>
      </trkpt>
      <trkpt lat="43.28063" lon="5.66148">
        <ele>552.296875</ele>
        <time>2017-03-25T14:05:32Z</time>
      </trkpt>
      <trkpt lat="43.2806" lon="5.6616">
        <ele>555.296875</ele>
        <time>2017-03-25T14:05:42Z</time>
      </trkpt>
      <trkpt lat="43.28055" lon="5.66171">
        <ele>557.597656</ele>
        <time>2017-03-25T14:05:52Z</time>
      </trkpt>
      <trkpt lat="43.28051" lon="5.66182">
        <ele>556.097656</ele>
        <time>2017-03-25T14:06:02Z</time>
      </trkpt>
      <trkpt lat="43.28048" lon="5.66194">
        <ele>557.898438</ele>
        <time>2017-03-25T14:06:29Z</time>
      </trkpt>
      <trkpt lat="43.28051" lon="5.66206">
        <ele>560.597656</ele>
        <time>2017-03-25T14:06:41Z</time>
      </trkpt>
      <trkpt lat="43.28056" lon="5.66217">
        <ele>562.398438</ele>
        <time>2017-03-25T14:06:53Z</time>
      </trkpt>
      <trkpt lat="43.28063" lon="5.66225">
        <ele>565</ele>
        <time>2017-03-25T14:07:05Z</time>
      </trkpt>
      <trkpt lat="43.28072" lon="5.66229">
        <ele>565.199219</ele>
        <time>2017-03-25T14:07:18Z</time>
      </trkpt>
      <trkpt lat="43.28081" lon="5.66229">
        <ele>565.296875</ele>
        <time>2017-03-25T14:07:31Z</time>
      </trkpt>
      <trkpt lat="43.2809" lon="5.66225">
        <ele>565.699219</ele>
        <time>2017-03-25T14:07:44Z</time>
      </trkpt>
      <trkpt lat="43.28082" lon="5.66231">
        <ele>564</ele>
        <time>2017-03-25T14:10:15Z</time>
      </trkpt>
      <trkpt lat="43.28073" lon="5.66231">
        <ele>563.5</ele>
        <time>2017-03-25T14:10:25Z</time>
      </trkpt>
      <trkpt lat="43.28063" lon="5.66228">
        <ele>561.097656</ele>
        <time>2017-03-25T14:10:36Z</time>
      </trkpt>
      <trkpt lat="43.28055" lon="5.66222">
        <ele>558.5</ele>
        <time>2017-03-25T14:10:49Z</time>
      </trkpt>
      <trkpt lat="43.28048" lon="5.66211">
        <ele>554.296875</ele>
        <time>2017-03-25T14:11:09Z</time>
      </trkpt>
      <trkpt lat="43.28046" lon="5.66198">
        <ele>551.199219</ele>
        <time>2017-03-25T14:11:22Z</time>
      </trkpt>
      <trkpt lat="43.28048" lon="5.66185">
        <ele>549.199219</ele>
        <time>2017-03-25T14:11:35Z</time>
      </trkpt>
      <trkpt lat="43.28053" lon="5.66174">
        <ele>547.699219</ele>
        <time>2017-03-25T14:11:46Z</time>
      </trkpt>
      <trkpt lat="43.28057" lon="5.66163">
        <ele>546.5</ele>
        <time>2017-03-25T14:11:57Z</time>
      </trkpt>
      <trkpt lat="43.28058" lon="5.6615">
        <ele>545.398438</ele>
        <time>2017-03-25T14:12:08Z</time>
      </trkpt>
      <trkpt lat="43.28059" lon="5.66137">
        <ele>543.898438</ele>
        <time>2017-03-25T14:12:20Z</time>
      </trkpt>
      <trkpt lat="43.28068" lon="5.66134">
        <ele>542.296875</ele>
        <time>2017-03-25T14:12:33Z</time>
      </trkpt>
      <trkpt lat="43.28077" lon="5.6613">
        <ele>540.699219</ele>
        <time>2017-03-25T14:12:43Z</time>
      </trkpt>
      <trkpt lat="43.28085" lon="5.66123">
        <ele>538.597656</ele>
        <time>2017-03-25T14:12:52Z</time>
      </trkpt>
      <trkpt lat="43.28101" lon="5.66107">
        <ele>535.199219</ele>
        <time>2017-03-25T14:13:12Z</time>
      </trkpt>
      <trkpt lat="43.2811" lon="5.66106">
        <ele>532.296875</ele>
        <time>2017-03-25T14:13:24Z</time>
      </trkpt>
      <trkpt lat="43.28116" lon="5.66117">
        <ele>530.398438</ele>
        <time>2017-03-25T14:13:35Z</time>
      </trkpt>
      <trkpt lat="43.2812" lon="5.66129">
        <ele>529.296875</ele>
        <time>2017-03-25T14:13:45Z</time>
      </trkpt>
      <trkpt lat="43.28125" lon="5.66141">
        <ele>529.5</ele>
        <time>2017-03-25T14:13:55Z</time>
      </trkpt>
      <trkpt lat="43.28132" lon="5.66149">
        <ele>530.398438</ele>
        <time>2017-03-25T14:14:04Z</time>
      </trkpt>
      <trkpt lat="43.28137" lon="5.66159">
        <ele>528.699219</ele>
        <time>2017-03-25T14:14:17Z</time>
      </trkpt>
      <trkpt lat="43.28141" lon="5.6617">
        <ele>527.796875</ele>
        <time>2017-03-25T14:14:26Z</time>
      </trkpt>
      <trkpt lat="43.28147" lon="5.66181">
        <ele>526.199219</ele>
        <time>2017-03-25T14:14:35Z</time>
      </trkpt>
      <trkpt lat="43.28153" lon="5.66191">
        <ele>525.597656</ele>
        <time>2017-03-25T14:14:44Z</time>
      </trkpt>
      <trkpt lat="43.28158" lon="5.66202">
        <ele>525.796875</ele>
        <time>2017-03-25T14:14:53Z</time>
      </trkpt>
      <trkpt lat="43.28161" lon="5.66215">
        <ele>524.597656</ele>
        <time>2017-03-25T14:15:02Z</time>
      </trkpt>
      <trkpt lat="43.28163" lon="5.66227">
        <ele>523.5</ele>
        <time>2017-03-25T14:15:12Z</time>
      </trkpt>
      <trkpt lat="43.28167" lon="5.66238">
        <ele>524.796875</ele>
        <time>2017-03-25T14:15:21Z</time>
      </trkpt>
      <trkpt lat="43.28164" lon="5.66251">
        <ele>527.796875</ele>
        <time>2017-03-25T14:15:32Z</time>
      </trkpt>
      <trkpt lat="43.28159" lon="5.66262">
        <ele>528.5</ele>
        <time>2017-03-25T14:15:44Z</time>
      </trkpt>
      <trkpt lat="43.28152" lon="5.66272">
        <ele>529.097656</ele>
        <time>2017-03-25T14:15:55Z</time>
      </trkpt>
      <trkpt lat="43.28145" lon="5.66281">
        <ele>526.898438</ele>
        <time>2017-03-25T14:16:04Z</time>
      </trkpt>
      <trkpt lat="43.28137" lon="5.66286">
        <ele>522.199219</ele>
        <time>2017-03-25T14:16:14Z</time>
      </trkpt>
      <trkpt lat="43.28129" lon="5.66294">
        <ele>520.199219</ele>
        <time>2017-03-25T14:16:28Z</time>
      </trkpt>
      <trkpt lat="43.28114" lon="5.66312">
        <ele>516.597656</ele>
        <time>2017-03-25T14:16:53Z</time>
      </trkpt>
      <trkpt lat="43.28106" lon="5.66318">
        <ele>514.296875</ele>
        <time>2017-03-25T14:17:03Z</time>
      </trkpt>
      <trkpt lat="43.28097" lon="5.66321">
        <ele>514</ele>
        <time>2017-03-25T14:17:12Z</time>
      </trkpt>
      <trkpt lat="43.28097" lon="5.66334">
        <ele>514.597656</ele>
        <time>2017-03-25T14:17:30Z</time>
      </trkpt>
      <trkpt lat="43.28104" lon="5.66341">
        <ele>513.097656</ele>
        <time>2017-03-25T14:17:40Z</time>
      </trkpt>
      <trkpt lat="43.28113" lon="5.66347">
        <ele>508.796875</ele>
        <time>2017-03-25T14:17:51Z</time>
      </trkpt>
      <trkpt lat="43.28115" lon="5.66359">
        <ele>507.796875</ele>
        <time>2017-03-25T14:18:04Z</time>
      </trkpt>
      <trkpt lat="43.28107" lon="5.66366">
        <ele>507.398438</ele>
        <time>2017-03-25T14:18:17Z</time>
      </trkpt>
      <trkpt lat="43.28098" lon="5.66367">
        <ele>503.796875</ele>
        <time>2017-03-25T14:18:29Z</time>
      </trkpt>
      <trkpt lat="43.28089" lon="5.6637">
        <ele>503.097656</ele>
        <time>2017-03-25T14:18:42Z</time>
      </trkpt>
      <trkpt lat="43.28085" lon="5.66382">
        <ele>505.597656</ele>
        <time>2017-03-25T14:18:55Z</time>
      </trkpt>
      <trkpt lat="43.28092" lon="5.6639">
        <ele>506.5</ele>
        <time>2017-03-25T14:19:05Z</time>
      </trkpt>
      <trkpt lat="43.28098" lon="5.664">
        <ele>505.398438</ele>
        <time>2017-03-25T14:19:16Z</time>
      </trkpt>
      <trkpt lat="43.28105" lon="5.66409">
        <ele>505.097656</ele>
        <time>2017-03-25T14:19:26Z</time>
      </trkpt>
      <trkpt lat="43.28113" lon="5.66417">
        <ele>503.398438</ele>
        <time>2017-03-25T14:19:35Z</time>
      </trkpt>
      <trkpt lat="43.28122" lon="5.66422">
        <ele>501.699219</ele>
        <time>2017-03-25T14:19:45Z</time>
      </trkpt>
      <trkpt lat="43.2813" lon="5.66428">
        <ele>501.199219</ele>
        <time>2017-03-25T14:19:54Z</time>
      </trkpt>
      <trkpt lat="43.28136" lon="5.66438">
        <ele>500.199219</ele>
        <time>2017-03-25T14:20:02Z</time>
      </trkpt>
      <trkpt lat="43.28143" lon="5.66447">
        <ele>499.296875</ele>
        <time>2017-03-25T14:20:11Z</time>
      </trkpt>
      <trkpt lat="43.2815" lon="5.66456">
        <ele>498.199219</ele>
        <time>2017-03-25T14:20:19Z</time>
      </trkpt>
      <trkpt lat="43.28155" lon="5.66467">
        <ele>498.5</ele>
        <time>2017-03-25T14:20:28Z</time>
      </trkpt>
      <trkpt lat="43.28159" lon="5.66479">
        <ele>496.097656</ele>
        <time>2017-03-25T14:20:36Z</time>
      </trkpt>
      <trkpt lat="43.28167" lon="5.66485">
        <ele>496.296875</ele>
        <time>2017-03-25T14:20:54Z</time>
      </trkpt>
      <trkpt lat="43.28177" lon="5.66484">
        <ele>495.597656</ele>
        <time>2017-03-25T14:21:03Z</time>
      </trkpt>
      <trkpt lat="43.28186" lon="5.66482">
        <ele>493.699219</ele>
        <time>2017-03-25T14:21:11Z</time>
      </trkpt>
      <trkpt lat="43.28196" lon="5.66484">
        <ele>494.597656</ele>
        <time>2017-03-25T14:21:26Z</time>
      </trkpt>
      <trkpt lat="43.28205" lon="5.66486">
        <ele>491.398438</ele>
        <time>2017-03-25T14:22:09Z</time>
      </trkpt>
      <trkpt lat="43.28214" lon="5.66485">
        <ele>488.5</ele>
        <time>2017-03-25T14:22:20Z</time>
      </trkpt>
      <trkpt lat="43.28223" lon="5.66484">
        <ele>485.398438</ele>
        <time>2017-03-25T14:22:30Z</time>
      </trkpt>
      <trkpt lat="43.28232" lon="5.6648">
        <ele>482.5</ele>
        <time>2017-03-25T14:22:40Z</time>
      </trkpt>
      <trkpt lat="43.2824" lon="5.66473">
        <ele>481.035156</ele>
        <time>2017-03-25T14:22:50Z</time>
      </trkpt>
      <trkpt lat="43.28247" lon="5.66466">
        <ele>479</ele>
        <time>2017-03-25T14:23:09Z</time>
      </trkpt>
      <trkpt lat="43.28251" lon="5.66455">
        <ele>477.898438</ele>
        <time>2017-03-25T14:23:40Z</time>
      </trkpt>
      <trkpt lat="43.28247" lon="5.66443">
        <ele>479</ele>
        <time>2017-03-25T14:23:53Z</time>
      </trkpt>
      <trkpt lat="43.28244" lon="5.6643">
        <ele>477.898438</ele>
        <time>2017-03-25T14:24:04Z</time>
      </trkpt>
      <trkpt lat="43.28245" lon="5.66417">
        <ele>477.699219</ele>
        <time>2017-03-25T14:24:15Z</time>
      </trkpt>
      <trkpt lat="43.28245" lon="5.66405">
        <ele>478.199219</ele>
        <time>2017-03-25T14:24:24Z</time>
      </trkpt>
      <trkpt lat="43.28247" lon="5.66391">
        <ele>477.5</ele>
        <time>2017-03-25T14:24:34Z</time>
      </trkpt>
      <trkpt lat="43.28254" lon="5.66382">
        <ele>477.796875</ele>
        <time>2017-03-25T14:24:44Z</time>
      </trkpt>
      <trkpt lat="43.28262" lon="5.66377">
        <ele>476.199219</ele>
        <time>2017-03-25T14:24:53Z</time>
      </trkpt>
      <trkpt lat="43.28272" lon="5.66374">
        <ele>473.398438</ele>
        <time>2017-03-25T14:25:02Z</time>
      </trkpt>
      <trkpt lat="43.28281" lon="5.66376">
        <ele>470.796875</ele>
        <time>2017-03-25T14:25:11Z</time>
      </trkpt>
      <trkpt lat="43.28289" lon="5.66379">
        <ele>470.796875</ele>
        <time>2017-03-25T14:25:20Z</time>
      </trkpt>
      <trkpt lat="43.28298" lon="5.66385">
        <ele>470.5</ele>
        <time>2017-03-25T14:25:28Z</time>
      </trkpt>
      <trkpt lat="43.28299" lon="5.66397">
        <ele>470.796875</ele>
        <time>2017-03-25T14:25:40Z</time>
      </trkpt>
      <trkpt lat="43.28296" lon="5.6641">
        <ele>470.898438</ele>
        <time>2017-03-25T14:25:50Z</time>
      </trkpt>
      <trkpt lat="43.28299" lon="5.66422">
        <ele>471.398438</ele>
        <time>2017-03-25T14:25:58Z</time>
      </trkpt>
      <trkpt lat="43.28304" lon="5.66433">
        <ele>471.296875</ele>
        <time>2017-03-25T14:26:06Z</time>
      </trkpt>
      <trkpt lat="43.28311" lon="5.66442">
        <ele>470.898438</ele>
        <time>2017-03-25T14:26:14Z</time>
      </trkpt>
      <trkpt lat="43.28324" lon="5.66461">
        <ele>470.5</ele>
        <time>2017-03-25T14:26:31Z</time>
      </trkpt>
      <trkpt lat="43.2833" lon="5.66472">
        <ele>471.398438</ele>
        <time>2017-03-25T14:26:39Z</time>
      </trkpt>
      <trkpt lat="43.28334" lon="5.66485">
        <ele>470.699219</ele>
        <time>2017-03-25T14:26:48Z</time>
      </trkpt>
      <trkpt lat="43.28337" lon="5.66497">
        <ele>469.097656</ele>
        <time>2017-03-25T14:26:56Z</time>
      </trkpt>
      <trkpt lat="43.28341" lon="5.66508">
        <ele>468.5</ele>
        <time>2017-03-25T14:27:04Z</time>
      </trkpt>
      <trkpt lat="43.28347" lon="5.66518">
        <ele>468</ele>
        <time>2017-03-25T14:27:12Z</time>
      </trkpt>
      <trkpt lat="43.28365" lon="5.66552">
        <ele>461</ele>
        <time>2017-03-25T14:27:38Z</time>
      </trkpt>
      <trkpt lat="43.28371" lon="5.66561">
        <ele>460.296875</ele>
        <time>2017-03-25T14:27:47Z</time>
      </trkpt>
      <trkpt lat="43.28384" lon="5.66579">
        <ele>457.5</ele>
        <time>2017-03-25T14:28:03Z</time>
      </trkpt>
      <trkpt lat="43.28392" lon="5.66587">
        <ele>458.097656</ele>
        <time>2017-03-25T14:28:11Z</time>
      </trkpt>
      <trkpt lat="43.284" lon="5.66594">
        <ele>459.699219</ele>
        <time>2017-03-25T14:28:18Z</time>
      </trkpt>
      <trkpt lat="43.28409" lon="5.666">
        <ele>461.398438</ele>
        <time>2017-03-25T14:28:25Z</time>
      </trkpt>
      <trkpt lat="43.28417" lon="5.66604">
        <ele>462.5</ele>
        <time>2017-03-25T14:28:31Z</time>
      </trkpt>
      <trkpt lat="43.28427" lon="5.66608">
        <ele>463.5</ele>
        <time>2017-03-25T14:28:38Z</time>
      </trkpt>
      <trkpt lat="43.28436" lon="5.66609">
        <ele>462.199219</ele>
        <time>2017-03-25T14:28:51Z</time>
      </trkpt>
      <trkpt lat="43.28428" lon="5.66603">
        <ele>461.097656</ele>
        <time>2017-03-25T14:29:20Z</time>
      </trkpt>
      <trkpt lat="43.28421" lon="5.66594">
        <ele>458.796875</ele>
        <time>2017-03-25T14:29:46Z</time>
      </trkpt>
      <trkpt lat="43.28414" lon="5.66587">
        <ele>458.398438</ele>
        <time>2017-03-25T14:29:56Z</time>
      </trkpt>
      <trkpt lat="43.28407" lon="5.66577">
        <ele>457.898438</ele>
        <time>2017-03-25T14:30:05Z</time>
      </trkpt>
      <trkpt lat="43.28395" lon="5.66557">
        <ele>459</ele>
        <time>2017-03-25T14:30:23Z</time>
      </trkpt>
      <trkpt lat="43.2839" lon="5.66545">
        <ele>458.5</ele>
        <time>2017-03-25T14:30:31Z</time>
      </trkpt>
      <trkpt lat="43.28386" lon="5.66534">
        <ele>457.199219</ele>
        <time>2017-03-25T14:30:39Z</time>
      </trkpt>
      <trkpt lat="43.28378" lon="5.6651">
        <ele>455.199219</ele>
        <time>2017-03-25T14:30:56Z</time>
      </trkpt>
      <trkpt lat="43.28377" lon="5.66497">
        <ele>455.296875</ele>
        <time>2017-03-25T14:31:06Z</time>
      </trkpt>
      <trkpt lat="43.28385" lon="5.66489">
        <ele>461.097656</ele>
        <time>2017-03-25T14:31:15Z</time>
      </trkpt>
      <trkpt lat="43.28391" lon="5.6648">
        <ele>460</ele>
        <time>2017-03-25T14:32:23Z</time>
      </trkpt>
      <trkpt lat="43.284" lon="5.66484">
        <ele>456.699219</ele>
        <time>2017-03-25T14:32:33Z</time>
      </trkpt>
      <trkpt lat="43.28409" lon="5.66489">
        <ele>456.199219</ele>
        <time>2017-03-25T14:32:44Z</time>
      </trkpt>
      <trkpt lat="43.28418" lon="5.66491">
        <ele>457.199219</ele>
        <time>2017-03-25T14:32:52Z</time>
      </trkpt>
      <trkpt lat="43.28427" lon="5.66491">
        <ele>456</ele>
        <time>2017-03-25T14:33:00Z</time>
      </trkpt>
      <trkpt lat="43.28437" lon="5.66487">
        <ele>457</ele>
        <time>2017-03-25T14:33:10Z</time>
      </trkpt>
      <trkpt lat="43.28443" lon="5.66478">
        <ele>456</ele>
        <time>2017-03-25T14:33:18Z</time>
      </trkpt>
      <trkpt lat="43.28448" lon="5.66466">
        <ele>452.097656</ele>
        <time>2017-03-25T14:33:28Z</time>
      </trkpt>
      <trkpt lat="43.28451" lon="5.66454">
        <ele>447.699219</ele>
        <time>2017-03-25T14:33:39Z</time>
      </trkpt>
      <trkpt lat="43.28457" lon="5.66444">
        <ele>445</ele>
        <time>2017-03-25T14:33:50Z</time>
      </trkpt>
      <trkpt lat="43.28466" lon="5.66447">
        <ele>437.097656</ele>
        <time>2017-03-25T14:34:03Z</time>
      </trkpt>
      <trkpt lat="43.28475" lon="5.6645">
        <ele>435.898438</ele>
        <time>2017-03-25T14:34:20Z</time>
      </trkpt>
      <trkpt lat="43.28485" lon="5.66451">
        <ele>436.597656</ele>
        <time>2017-03-25T14:34:31Z</time>
      </trkpt>
      <trkpt lat="43.28495" lon="5.66449">
        <ele>436.097656</ele>
        <time>2017-03-25T14:34:40Z</time>
      </trkpt>
      <trkpt lat="43.28522" lon="5.66443">
        <ele>430.199219</ele>
        <time>2017-03-25T14:35:09Z</time>
      </trkpt>
      <trkpt lat="43.28541" lon="5.66441">
        <ele>426.699219</ele>
        <time>2017-03-25T14:35:30Z</time>
      </trkpt>
      <trkpt lat="43.28551" lon="5.66438">
        <ele>421.296875</ele>
        <time>2017-03-25T14:35:42Z</time>
      </trkpt>
      <trkpt lat="43.28559" lon="5.66432">
        <ele>418.898438</ele>
        <time>2017-03-25T14:35:54Z</time>
      </trkpt>
      <trkpt lat="43.28567" lon="5.66425">
        <ele>418.5</ele>
        <time>2017-03-25T14:36:03Z</time>
      </trkpt>
      <trkpt lat="43.28575" lon="5.66417">
        <ele>420.398438</ele>
        <time>2017-03-25T14:36:12Z</time>
      </trkpt>
      <trkpt lat="43.28582" lon="5.66408">
        <ele>423.097656</ele>
        <time>2017-03-25T14:36:20Z</time>
      </trkpt>
      <trkpt lat="43.28585" lon="5.66395">
        <ele>425.796875</ele>
        <time>2017-03-25T14:36:30Z</time>
      </trkpt>
      <trkpt lat="43.28587" lon="5.66383">
        <ele>428.5</ele>
        <time>2017-03-25T14:36:38Z</time>
      </trkpt>
      <trkpt lat="43.28592" lon="5.66372">
        <ele>429.097656</ele>
        <time>2017-03-25T14:36:46Z</time>
      </trkpt>
      <trkpt lat="43.28597" lon="5.66361">
        <ele>429.199219</ele>
        <time>2017-03-25T14:36:54Z</time>
      </trkpt>
      <trkpt lat="43.28603" lon="5.66352">
        <ele>428.097656</ele>
        <time>2017-03-25T14:37:02Z</time>
      </trkpt>
      <trkpt lat="43.28609" lon="5.66343">
        <ele>425.296875</ele>
        <time>2017-03-25T14:37:10Z</time>
      </trkpt>
      <trkpt lat="43.28617" lon="5.66335">
        <ele>422.398438</ele>
        <time>2017-03-25T14:37:20Z</time>
      </trkpt>
      <trkpt lat="43.28626" lon="5.66328">
        <ele>420</ele>
        <time>2017-03-25T14:37:29Z</time>
      </trkpt>
      <trkpt lat="43.28635" lon="5.66325">
        <ele>416.796875</ele>
        <time>2017-03-25T14:37:38Z</time>
      </trkpt>
      <trkpt lat="43.28645" lon="5.66324">
        <ele>414.796875</ele>
        <time>2017-03-25T14:37:48Z</time>
      </trkpt>
      <trkpt lat="43.28654" lon="5.66321">
        <ele>412.097656</ele>
        <time>2017-03-25T14:37:58Z</time>
      </trkpt>
      <trkpt lat="43.28662" lon="5.66316">
        <ele>410.699219</ele>
        <time>2017-03-25T14:38:09Z</time>
      </trkpt>
      <trkpt lat="43.28671" lon="5.66311">
        <ele>408.296875</ele>
        <time>2017-03-25T14:38:18Z</time>
      </trkpt>
      <trkpt lat="43.28678" lon="5.66302">
        <ele>404.199219</ele>
        <time>2017-03-25T14:38:28Z</time>
      </trkpt>
      <trkpt lat="43.28686" lon="5.66296">
        <ele>401.097656</ele>
        <time>2017-03-25T14:38:38Z</time>
      </trkpt>
      <trkpt lat="43.28694" lon="5.66289">
        <ele>399</ele>
        <time>2017-03-25T14:38:49Z</time>
      </trkpt>
      <trkpt lat="43.28702" lon="5.66281">
        <ele>399</ele>
        <time>2017-03-25T14:38:59Z</time>
      </trkpt>
      <trkpt lat="43.2871" lon="5.66276">
        <ele>397.296875</ele>
        <time>2017-03-25T14:39:08Z</time>
      </trkpt>
      <trkpt lat="43.28719" lon="5.66273">
        <ele>397.097656</ele>
        <time>2017-03-25T14:39:16Z</time>
      </trkpt>
      <trkpt lat="43.28729" lon="5.66274">
        <ele>397.5</ele>
        <time>2017-03-25T14:39:24Z</time>
      </trkpt>
      <trkpt lat="43.28739" lon="5.66272">
        <ele>396.597656</ele>
        <time>2017-03-25T14:39:32Z</time>
      </trkpt>
      <trkpt lat="43.28746" lon="5.66265">
        <ele>395.199219</ele>
        <time>2017-03-25T14:39:41Z</time>
      </trkpt>
      <trkpt lat="43.28752" lon="5.66255">
        <ele>392</ele>
        <time>2017-03-25T14:39:51Z</time>
      </trkpt>
      <trkpt lat="43.28771" lon="5.66226">
        <ele>392.796875</ele>
        <time>2017-03-25T14:40:20Z</time>
      </trkpt>
      <trkpt lat="43.28779" lon="5.6622">
        <ele>394.296875</ele>
        <time>2017-03-25T14:40:27Z</time>
      </trkpt>
      <trkpt lat="43.28785" lon="5.6621">
        <ele>396.5</ele>
        <time>2017-03-25T14:40:35Z</time>
      </trkpt>
      <trkpt lat="43.2879" lon="5.66198">
        <ele>398.5</ele>
        <time>2017-03-25T14:40:44Z</time>
      </trkpt>
      <trkpt lat="43.28798" lon="5.66188">
        <ele>400.199219</ele>
        <time>2017-03-25T14:40:52Z</time>
      </trkpt>
      <trkpt lat="43.28807" lon="5.66182">
        <ele>401.898438</ele>
        <time>2017-03-25T14:41:00Z</time>
      </trkpt>
      <trkpt lat="43.28816" lon="5.66176">
        <ele>402.03125</ele>
        <time>2017-03-25T14:41:08Z</time>
      </trkpt>
      <trkpt lat="43.28825" lon="5.66176">
        <ele>393.398438</ele>
        <time>2017-03-25T14:41:22Z</time>
      </trkpt>
      <trkpt lat="43.28821" lon="5.66164">
        <ele>390.398438</ele>
        <time>2017-03-25T14:46:50Z</time>
      </trkpt>
      <trkpt lat="43.2882" lon="5.66151">
        <ele>387.398438</ele>
        <time>2017-03-25T14:47:02Z</time>
      </trkpt>
      <trkpt lat="43.28816" lon="5.6611">
        <ele>374.398438</ele>
        <time>2017-03-25T14:47:39Z</time>
      </trkpt>
      <trkpt lat="43.2882" lon="5.66098">
        <ele>375.699219</ele>
        <time>2017-03-25T14:47:48Z</time>
      </trkpt>
      <trkpt lat="43.28829" lon="5.66076">
        <ele>375.5</ele>
        <time>2017-03-25T14:48:04Z</time>
      </trkpt>
      <trkpt lat="43.28831" lon="5.66063">
        <ele>375.796875</ele>
        <time>2017-03-25T14:48:13Z</time>
      </trkpt>
      <trkpt lat="43.28832" lon="5.66051">
        <ele>377.796875</ele>
        <time>2017-03-25T14:48:21Z</time>
      </trkpt>
      <trkpt lat="43.28831" lon="5.66038">
        <ele>379</ele>
        <time>2017-03-25T14:48:29Z</time>
      </trkpt>
      <trkpt lat="43.2883" lon="5.66025">
        <ele>378.597656</ele>
        <time>2017-03-25T14:48:38Z</time>
      </trkpt>
      <trkpt lat="43.28824" lon="5.65982">
        <ele>372.199219</ele>
        <time>2017-03-25T14:49:29Z</time>
      </trkpt>
      <trkpt lat="43.2882" lon="5.65969">
        <ele>367.296875</ele>
        <time>2017-03-25T14:49:40Z</time>
      </trkpt>
      <trkpt lat="43.28828" lon="5.65975">
        <ele>369.296875</ele>
        <time>2017-03-25T14:50:05Z</time>
      </trkpt>
      <trkpt lat="43.28834" lon="5.65985">
        <ele>369.699219</ele>
        <time>2017-03-25T14:50:19Z</time>
      </trkpt>
      <trkpt lat="43.2884" lon="5.65995">
        <ele>369.796875</ele>
        <time>2017-03-25T14:50:30Z</time>
      </trkpt>
      <trkpt lat="43.28861" lon="5.66022">
        <ele>367.5</ele>
        <time>2017-03-25T14:50:59Z</time>
      </trkpt>
      <trkpt lat="43.28867" lon="5.66033">
        <ele>365.699219</ele>
        <time>2017-03-25T14:51:08Z</time>
      </trkpt>
      <trkpt lat="43.2887" lon="5.66045">
        <ele>363.296875</ele>
        <time>2017-03-25T14:51:18Z</time>
      </trkpt>
      <trkpt lat="43.28871" lon="5.66058">
        <ele>360.898438</ele>
        <time>2017-03-25T14:51:31Z</time>
      </trkpt>
      <trkpt lat="43.28867" lon="5.66069">
        <ele>360.5</ele>
        <time>2017-03-25T14:51:42Z</time>
      </trkpt>
      <trkpt lat="43.28865" lon="5.66082">
        <ele>359.296875</ele>
        <time>2017-03-25T14:51:51Z</time>
      </trkpt>
      <trkpt lat="43.28866" lon="5.66095">
        <ele>360.199219</ele>
        <time>2017-03-25T14:52:00Z</time>
      </trkpt>
      <trkpt lat="43.28871" lon="5.66084">
        <ele>361.398438</ele>
        <time>2017-03-25T14:54:13Z</time>
      </trkpt>
      <trkpt lat="43.28878" lon="5.66075">
        <ele>363.398438</ele>
        <time>2017-03-25T14:54:23Z</time>
      </trkpt>
      <trkpt lat="43.28887" lon="5.66069">
        <ele>364.796875</ele>
        <time>2017-03-25T14:54:31Z</time>
      </trkpt>
      <trkpt lat="43.28894" lon="5.6606">
        <ele>362.296875</ele>
        <time>2017-03-25T14:54:40Z</time>
      </trkpt>
      <trkpt lat="43.28894" lon="5.66048">
        <ele>361.699219</ele>
        <time>2017-03-25T14:54:51Z</time>
      </trkpt>
      <trkpt lat="43.28893" lon="5.66034">
        <ele>360.5</ele>
        <time>2017-03-25T14:55:01Z</time>
      </trkpt>
      <trkpt lat="43.2889" lon="5.66023">
        <ele>358.898438</ele>
        <time>2017-03-25T14:55:09Z</time>
      </trkpt>
      <trkpt lat="43.28883" lon="5.65999">
        <ele>355.699219</ele>
        <time>2017-03-25T14:55:29Z</time>
      </trkpt>
      <trkpt lat="43.28874" lon="5.65975">
        <ele>353.296875</ele>
        <time>2017-03-25T14:55:49Z</time>
      </trkpt>
      <trkpt lat="43.28872" lon="5.65963">
        <ele>355.5</ele>
        <time>2017-03-25T14:55:58Z</time>
      </trkpt>
      <trkpt lat="43.28874" lon="5.6595">
        <ele>358.5</ele>
        <time>2017-03-25T14:56:07Z</time>
      </trkpt>
      <trkpt lat="43.28877" lon="5.65937">
        <ele>356</ele>
        <time>2017-03-25T14:56:16Z</time>
      </trkpt>
      <trkpt lat="43.28873" lon="5.65925">
        <ele>353.199219</ele>
        <time>2017-03-25T14:56:25Z</time>
      </trkpt>
      <trkpt lat="43.28872" lon="5.65912">
        <ele>352.898438</ele>
        <time>2017-03-25T14:56:33Z</time>
      </trkpt>
      <trkpt lat="43.28871" lon="5.659">
        <ele>352.597656</ele>
        <time>2017-03-25T14:56:42Z</time>
      </trkpt>
      <trkpt lat="43.28865" lon="5.6589">
        <ele>350.796875</ele>
        <time>2017-03-25T14:56:51Z</time>
      </trkpt>
      <trkpt lat="43.2886" lon="5.65879">
        <ele>348</ele>
        <time>2017-03-25T14:57:00Z</time>
      </trkpt>
      <trkpt lat="43.28857" lon="5.65867">
        <ele>345.796875</ele>
        <time>2017-03-25T14:57:08Z</time>
      </trkpt>
      <trkpt lat="43.28853" lon="5.65855">
        <ele>344.796875</ele>
        <time>2017-03-25T14:57:16Z</time>
      </trkpt>
      <trkpt lat="43.28853" lon="5.65842">
        <ele>341.796875</ele>
        <time>2017-03-25T14:57:26Z</time>
      </trkpt>
      <trkpt lat="43.28852" lon="5.65829">
        <ele>340.796875</ele>
        <time>2017-03-25T14:57:37Z</time>
      </trkpt>
      <trkpt lat="43.28858" lon="5.65818">
        <ele>342.398438</ele>
        <time>2017-03-25T14:57:46Z</time>
      </trkpt>
      <trkpt lat="43.28863" lon="5.65808">
        <ele>343.296875</ele>
        <time>2017-03-25T14:57:55Z</time>
      </trkpt>
      <trkpt lat="43.28866" lon="5.65795">
        <ele>344.5</ele>
        <time>2017-03-25T14:58:05Z</time>
      </trkpt>
      <trkpt lat="43.2887" lon="5.65783">
        <ele>343.5</ele>
        <time>2017-03-25T14:58:15Z</time>
      </trkpt>
      <trkpt lat="43.28873" lon="5.65771">
        <ele>341.296875</ele>
        <time>2017-03-25T14:58:39Z</time>
      </trkpt>
      <trkpt lat="43.28882" lon="5.6577">
        <ele>335.296875</ele>
        <time>2017-03-25T14:58:51Z</time>
      </trkpt>
      <trkpt lat="43.28892" lon="5.6577">
        <ele>331</ele>
        <time>2017-03-25T14:59:06Z</time>
      </trkpt>
      <trkpt lat="43.28901" lon="5.65766">
        <ele>330.597656</ele>
        <time>2017-03-25T14:59:24Z</time>
      </trkpt>
      <trkpt lat="43.2891" lon="5.65762">
        <ele>327.898438</ele>
        <time>2017-03-25T14:59:34Z</time>
      </trkpt>
      <trkpt lat="43.28918" lon="5.65756">
        <ele>321.898438</ele>
        <time>2017-03-25T14:59:46Z</time>
      </trkpt>
      <trkpt lat="43.28934" lon="5.65742">
        <ele>317.5</ele>
        <time>2017-03-25T15:00:08Z</time>
      </trkpt>
      <trkpt lat="43.28943" lon="5.65737">
        <ele>315.597656</ele>
        <time>2017-03-25T15:00:18Z</time>
      </trkpt>
      <trkpt lat="43.2895" lon="5.65729">
        <ele>308.898438</ele>
        <time>2017-03-25T15:00:28Z</time>
      </trkpt>
      <trkpt lat="43.28947" lon="5.65741">
        <ele>305.296875</ele>
        <time>2017-03-25T15:00:51Z</time>
      </trkpt>
      <trkpt lat="43.28939" lon="5.65749">
        <ele>301.296875</ele>
        <time>2017-03-25T15:01:02Z</time>
      </trkpt>
      <trkpt lat="43.28932" lon="5.65758">
        <ele>297.796875</ele>
        <time>2017-03-25T15:01:14Z</time>
      </trkpt>
      <trkpt lat="43.28926" lon="5.65767">
        <ele>295</ele>
        <time>2017-03-25T15:01:24Z</time>
      </trkpt>
      <trkpt lat="43.28919" lon="5.65776">
        <ele>293.699219</ele>
        <time>2017-03-25T15:01:34Z</time>
      </trkpt>
      <trkpt lat="43.28915" lon="5.65787">
        <ele>293.5</ele>
        <time>2017-03-25T15:01:43Z</time>
      </trkpt>
      <trkpt lat="43.28912" lon="5.658">
        <ele>291.597656</ele>
        <time>2017-03-25T15:01:52Z</time>
      </trkpt>
      <trkpt lat="43.28914" lon="5.65813">
        <ele>291.199219</ele>
        <time>2017-03-25T15:02:02Z</time>
      </trkpt>
      <trkpt lat="43.28921" lon="5.65823">
        <ele>292.5</ele>
        <time>2017-03-25T15:02:11Z</time>
      </trkpt>
      <trkpt lat="43.28926" lon="5.65833">
        <ele>296.597656</ele>
        <time>2017-03-25T15:02:20Z</time>
      </trkpt>
      <trkpt lat="43.28933" lon="5.65841">
        <ele>308.597656</ele>
        <time>2017-03-25T15:02:59Z</time>
      </trkpt>
      <trkpt lat="43.28947" lon="5.65849">
        <ele>303.5</ele>
        <time>2017-03-25T15:03:15Z</time>
      </trkpt>
      <trkpt lat="43.2895" lon="5.65861">
        <ele>295.398438</ele>
        <time>2017-03-25T15:03:27Z</time>
      </trkpt>
      <trkpt lat="43.28945" lon="5.65872">
        <ele>290.597656</ele>
        <time>2017-03-25T15:03:37Z</time>
      </trkpt>
      <trkpt lat="43.28939" lon="5.65883">
        <ele>286.398438</ele>
        <time>2017-03-25T15:03:45Z</time>
      </trkpt>
      <trkpt lat="43.28936" lon="5.65895">
        <ele>288.796875</ele>
        <time>2017-03-25T15:03:55Z</time>
      </trkpt>
      <trkpt lat="43.28943" lon="5.65885">
        <ele>291.097656</ele>
        <time>2017-03-25T15:04:24Z</time>
      </trkpt>
      <trkpt lat="43.28949" lon="5.65876">
        <ele>291.296875</ele>
        <time>2017-03-25T15:04:34Z</time>
      </trkpt>
      <trkpt lat="43.28951" lon="5.65862">
        <ele>288.597656</ele>
        <time>2017-03-25T15:04:45Z</time>
      </trkpt>
      <trkpt lat="43.28952" lon="5.6585">
        <ele>284.398438</ele>
        <time>2017-03-25T15:04:57Z</time>
      </trkpt>
      <trkpt lat="43.28946" lon="5.65839">
        <ele>282.097656</ele>
        <time>2017-03-25T15:05:06Z</time>
      </trkpt>
      <trkpt lat="43.28942" lon="5.65828">
        <ele>280.296875</ele>
        <time>2017-03-25T15:05:16Z</time>
      </trkpt>
      <trkpt lat="43.28946" lon="5.65816">
        <ele>278.898438</ele>
        <time>2017-03-25T15:05:27Z</time>
      </trkpt>
      <trkpt lat="43.28953" lon="5.65807">
        <ele>280.296875</ele>
        <time>2017-03-25T15:05:37Z</time>
      </trkpt>
      <trkpt lat="43.28961" lon="5.65803">
        <ele>279.296875</ele>
        <time>2017-03-25T15:05:46Z</time>
      </trkpt>
      <trkpt lat="43.2898" lon="5.65796">
        <ele>277.5</ele>
        <time>2017-03-25T15:06:05Z</time>
      </trkpt>
      <trkpt lat="43.28989" lon="5.65795">
        <ele>277.296875</ele>
        <time>2017-03-25T15:06:12Z</time>
      </trkpt>
      <trkpt lat="43.28998" lon="5.65793">
        <ele>276.5</ele>
        <time>2017-03-25T15:06:19Z</time>
      </trkpt>
      <trkpt lat="43.29005" lon="5.65785">
        <ele>274.5</ele>
        <time>2017-03-25T15:06:29Z</time>
      </trkpt>
      <trkpt lat="43.29007" lon="5.65773">
        <ele>272.296875</ele>
        <time>2017-03-25T15:06:42Z</time>
      </trkpt>
      <trkpt lat="43.29011" lon="5.65762">
        <ele>272.699219</ele>
        <time>2017-03-25T15:06:50Z</time>
      </trkpt>
      <trkpt lat="43.29015" lon="5.65751">
        <ele>272.296875</ele>
        <time>2017-03-25T15:06:58Z</time>
      </trkpt>
      <trkpt lat="43.29021" lon="5.65741">
        <ele>271.699219</ele>
        <time>2017-03-25T15:07:06Z</time>
      </trkpt>
      <trkpt lat="43.29028" lon="5.65731">
        <ele>270.796875</ele>
        <time>2017-03-25T15:07:15Z</time>
      </trkpt>
      <trkpt lat="43.29035" lon="5.65723">
        <ele>264.5</ele>
        <time>2017-03-25T15:07:26Z</time>
      </trkpt>
      <trkpt lat="43.29031" lon="5.65734">
        <ele>261.5</ele>
        <time>2017-03-25T15:07:43Z</time>
      </trkpt>
      <trkpt lat="43.29024" lon="5.65743">
        <ele>260.597656</ele>
        <time>2017-03-25T15:07:53Z</time>
      </trkpt>
      <trkpt lat="43.29021" lon="5.65755">
        <ele>258.296875</ele>
        <time>2017-03-25T15:08:02Z</time>
      </trkpt>
      <trkpt lat="43.29018" lon="5.65769">
        <ele>257.796875</ele>
        <time>2017-03-25T15:08:11Z</time>
      </trkpt>
      <trkpt lat="43.29018" lon="5.65781">
        <ele>257.796875</ele>
        <time>2017-03-25T15:08:19Z</time>
      </trkpt>
      <trkpt lat="43.29016" lon="5.65794">
        <ele>259.796875</ele>
        <time>2017-03-25T15:08:27Z</time>
      </trkpt>
      <trkpt lat="43.2901" lon="5.65802">
        <ele>260</ele>
        <time>2017-03-25T15:08:44Z</time>
      </trkpt>
      <trkpt lat="43.29002" lon="5.65808">
        <ele>256.296875</ele>
        <time>2017-03-25T15:08:57Z</time>
      </trkpt>
      <trkpt lat="43.28994" lon="5.65814">
        <ele>253.296875</ele>
        <time>2017-03-25T15:09:08Z</time>
      </trkpt>
      <trkpt lat="43.2899" lon="5.65827">
        <ele>250.398438</ele>
        <time>2017-03-25T15:09:18Z</time>
      </trkpt>
      <trkpt lat="43.2899" lon="5.65839">
        <ele>247.699219</ele>
        <time>2017-03-25T15:09:27Z</time>
      </trkpt>
      <trkpt lat="43.28991" lon="5.65852">
        <ele>247.863281</ele>
        <time>2017-03-25T15:09:36Z</time>
      </trkpt>
      <trkpt lat="43.28993" lon="5.65864">
        <ele>247.796875</ele>
        <time>2017-03-25T15:09:50Z</time>
      </trkpt>
      <trkpt lat="43.28996" lon="5.65877">
        <ele>247</ele>
        <time>2017-03-25T15:09:58Z</time>
      </trkpt>
      <trkpt lat="43.29001" lon="5.65888">
        <ele>247.597656</ele>
        <time>2017-03-25T15:10:08Z</time>
      </trkpt>
      <trkpt lat="43.29006" lon="5.65899">
        <ele>250</ele>
        <time>2017-03-25T15:10:18Z</time>
      </trkpt>
      <trkpt lat="43.29008" lon="5.65912">
        <ele>258.898438</ele>
        <time>2017-03-25T15:10:27Z</time>
      </trkpt>
      <trkpt lat="43.29015" lon="5.65923">
        <ele>263</ele>
        <time>2017-03-25T15:10:39Z</time>
      </trkpt>
      <trkpt lat="43.29016" lon="5.65937">
        <ele>261.699219</ele>
        <time>2017-03-25T15:10:49Z</time>
      </trkpt>
      <trkpt lat="43.29018" lon="5.65949">
        <ele>259.253906</ele>
        <time>2017-03-25T15:10:56Z</time>
      </trkpt>
      <trkpt lat="43.29017" lon="5.65962">
        <ele>256.097656</ele>
        <time>2017-03-25T15:11:15Z</time>
      </trkpt>
      <trkpt lat="43.29022" lon="5.65974">
        <ele>247.289063</ele>
        <time>2017-03-25T15:11:23Z</time>
      </trkpt>
      <trkpt lat="43.29028" lon="5.65983">
        <ele>259.597656</ele>
        <time>2017-03-25T15:11:48Z</time>
      </trkpt>
      <trkpt lat="43.29035" lon="5.65991">
        <ele>239.070313</ele>
        <time>2017-03-25T15:11:56Z</time>
      </trkpt>
      <trkpt lat="43.29034" lon="5.65979">
        <ele>242.597656</ele>
        <time>2017-03-25T15:15:28Z</time>
      </trkpt>
      <trkpt lat="43.29027" lon="5.6596">
        <ele>243.230469</ele>
        <time>2017-03-25T15:16:15Z</time>
      </trkpt>
      <trkpt lat="43.29025" lon="5.65947">
        <ele>241.5</ele>
        <time>2017-03-25T15:16:27Z</time>
      </trkpt>
      <trkpt lat="43.29025" lon="5.65935">
        <ele>235.328125</ele>
        <time>2017-03-25T15:16:35Z</time>
      </trkpt>
      <trkpt lat="43.29021" lon="5.65923">
        <ele>245.53125</ele>
        <time>2017-03-25T15:16:54Z</time>
      </trkpt>
      <trkpt lat="43.29028" lon="5.65914">
        <ele>245.5</ele>
        <time>2017-03-25T15:17:37Z</time>
      </trkpt>
      <trkpt lat="43.29027" lon="5.65901">
        <ele>242.398438</ele>
        <time>2017-03-25T15:17:46Z</time>
      </trkpt>
      <trkpt lat="43.29028" lon="5.65876">
        <ele>238.398438</ele>
        <time>2017-03-25T15:18:03Z</time>
      </trkpt>
      <trkpt lat="43.29029" lon="5.65863">
        <ele>236.5</ele>
        <time>2017-03-25T15:18:11Z</time>
      </trkpt>
      <trkpt lat="43.29031" lon="5.65851">
        <ele>234.699219</ele>
        <time>2017-03-25T15:18:19Z</time>
      </trkpt>
      <trkpt lat="43.29035" lon="5.65839">
        <ele>232</ele>
        <time>2017-03-25T15:18:28Z</time>
      </trkpt>
      <trkpt lat="43.29034" lon="5.65827">
        <ele>231.898438</ele>
        <time>2017-03-25T15:18:36Z</time>
      </trkpt>
      <trkpt lat="43.29037" lon="5.65815">
        <ele>230.296875</ele>
        <time>2017-03-25T15:18:44Z</time>
      </trkpt>
      <trkpt lat="43.29043" lon="5.65805">
        <ele>225.296875</ele>
        <time>2017-03-25T15:18:52Z</time>
      </trkpt>
      <trkpt lat="43.29065" lon="5.65767">
        <ele>220.097656</ele>
        <time>2017-03-25T15:19:23Z</time>
      </trkpt>
      <trkpt lat="43.29068" lon="5.65754">
        <ele>218.296875</ele>
        <time>2017-03-25T15:19:32Z</time>
      </trkpt>
      <trkpt lat="43.29074" lon="5.65743">
        <ele>218.699219</ele>
        <time>2017-03-25T15:19:41Z</time>
      </trkpt>
      <trkpt lat="43.29077" lon="5.65731">
        <ele>218.957031</ele>
        <time>2017-03-25T15:19:49Z</time>
      </trkpt>
      <trkpt lat="43.2908" lon="5.65719">
        <ele>223.296875</ele>
        <time>2017-03-25T15:20:03Z</time>
      </trkpt>
      <trkpt lat="43.29082" lon="5.65701">
        <ele>224.5</ele>
        <time>2017-03-25T15:20:10Z</time>
      </trkpt>
      <trkpt lat="43.2908" lon="5.65685">
        <ele>226.199219</ele>
        <time>2017-03-25T15:20:19Z</time>
      </trkpt>
      <trkpt lat="43.29077" lon="5.65673">
        <ele>229.5</ele>
        <time>2017-03-25T15:20:26Z</time>
      </trkpt>
      <trkpt lat="43.29071" lon="5.65647">
        <ele>232.398438</ele>
        <time>2017-03-25T15:20:41Z</time>
      </trkpt>
      <trkpt lat="43.29069" lon="5.65633">
        <ele>233.5</ele>
        <time>2017-03-25T15:20:50Z</time>
      </trkpt>
      <trkpt lat="43.29066" lon="5.65621">
        <ele>233.699219</ele>
        <time>2017-03-25T15:20:58Z</time>
      </trkpt>
      <trkpt lat="43.29066" lon="5.65608">
        <ele>228.597656</ele>
        <time>2017-03-25T15:21:07Z</time>
      </trkpt>
      <trkpt lat="43.29066" lon="5.65591">
        <ele>225.898438</ele>
        <time>2017-03-25T15:21:18Z</time>
      </trkpt>
      <trkpt lat="43.2907" lon="5.65578">
        <ele>225.097656</ele>
        <time>2017-03-25T15:21:26Z</time>
      </trkpt>
      <trkpt lat="43.29075" lon="5.65567">
        <ele>225.597656</ele>
        <time>2017-03-25T15:21:34Z</time>
      </trkpt>
      <trkpt lat="43.29085" lon="5.65544">
        <ele>223.898438</ele>
        <time>2017-03-25T15:21:50Z</time>
      </trkpt>
      <trkpt lat="43.29088" lon="5.65532">
        <ele>220.597656</ele>
        <time>2017-03-25T15:21:58Z</time>
      </trkpt>
      <trkpt lat="43.29099" lon="5.6548">
        <ele>215.898438</ele>
        <time>2017-03-25T15:22:31Z</time>
      </trkpt>
      <trkpt lat="43.29104" lon="5.6547">
        <ele>215</ele>
        <time>2017-03-25T15:22:38Z</time>
      </trkpt>
      <trkpt lat="43.29106" lon="5.65457">
        <ele>212.296875</ele>
        <time>2017-03-25T15:22:47Z</time>
      </trkpt>
      <trkpt lat="43.2911" lon="5.65406">
        <ele>209.699219</ele>
        <time>2017-03-25T15:23:20Z</time>
      </trkpt>
      <trkpt lat="43.29109" lon="5.65393">
        <ele>210.796875</ele>
        <time>2017-03-25T15:23:29Z</time>
      </trkpt>
      <trkpt lat="43.29109" lon="5.65379">
        <ele>212.097656</ele>
        <time>2017-03-25T15:23:38Z</time>
      </trkpt>
      <trkpt lat="43.29108" lon="5.65367">
        <ele>213.898438</ele>
        <time>2017-03-25T15:23:45Z</time>
      </trkpt>
      <trkpt lat="43.29109" lon="5.65353">
        <ele>215.398438</ele>
        <time>2017-03-25T15:23:53Z</time>
      </trkpt>
      <trkpt lat="43.29109" lon="5.65339">
        <ele>218.398438</ele>
        <time>2017-03-25T15:24:01Z</time>
      </trkpt>
      <trkpt lat="43.29109" lon="5.65324">
        <ele>219.898438</ele>
        <time>2017-03-25T15:24:11Z</time>
      </trkpt>
      <trkpt lat="43.29107" lon="5.65311">
        <ele>221.199219</ele>
        <time>2017-03-25T15:24:18Z</time>
      </trkpt>
      <trkpt lat="43.29086" lon="5.65191">
        <ele>217.796875</ele>
        <time>2017-03-25T15:25:28Z</time>
      </trkpt>
      <trkpt lat="43.29085" lon="5.65178">
        <ele>217.398438</ele>
        <time>2017-03-25T15:25:34Z</time>
      </trkpt>
      <trkpt lat="43.29087" lon="5.65165">
        <ele>216.398438</ele>
        <time>2017-03-25T15:25:41Z</time>
      </trkpt>
      <trkpt lat="43.29088" lon="5.65153">
        <ele>213.796875</ele>
        <time>2017-03-25T15:25:48Z</time>
      </trkpt>
      <trkpt lat="43.2909" lon="5.65139">
        <ele>209.296875</ele>
        <time>2017-03-25T15:25:56Z</time>
      </trkpt>
      <trkpt lat="43.29093" lon="5.65127">
        <ele>205.296875</ele>
        <time>2017-03-25T15:26:04Z</time>
      </trkpt>
      <trkpt lat="43.291" lon="5.65104">
        <ele>205</ele>
        <time>2017-03-25T15:26:20Z</time>
      </trkpt>
      <trkpt lat="43.29103" lon="5.65092">
        <ele>205.796875</ele>
        <time>2017-03-25T15:26:27Z</time>
      </trkpt>
      <trkpt lat="43.29108" lon="5.65081">
        <ele>205.132813</ele>
        <time>2017-03-25T15:26:34Z</time>
      </trkpt>
      <trkpt lat="43.29112" lon="5.65069">
        <ele>212.597656</ele>
        <time>2017-03-25T15:26:45Z</time>
      </trkpt>
      <trkpt lat="43.29115" lon="5.65051">
        <ele>215.144531</ele>
        <time>2017-03-25T15:27:00Z</time>
      </trkpt>
      <trkpt lat="43.29109" lon="5.65042">
        <ele>223</ele>
        <time>2017-03-25T15:27:16Z</time>
      </trkpt>
      <trkpt lat="43.29096" lon="5.65028">
        <ele>216.699219</ele>
        <time>2017-03-25T15:27:50Z</time>
      </trkpt>
      <trkpt lat="43.29093" lon="5.65016">
        <ele>208.597656</ele>
        <time>2017-03-25T15:28:00Z</time>
      </trkpt>
      <trkpt lat="43.29092" lon="5.65003">
        <ele>203.796875</ele>
        <time>2017-03-25T15:28:10Z</time>
      </trkpt>
      <trkpt lat="43.29091" lon="5.6499">
        <ele>199.097656</ele>
        <time>2017-03-25T15:28:18Z</time>
      </trkpt>
      <trkpt lat="43.29092" lon="5.64977">
        <ele>194.5</ele>
        <time>2017-03-25T15:28:27Z</time>
      </trkpt>
      <trkpt lat="43.29089" lon="5.64965">
        <ele>191.796875</ele>
        <time>2017-03-25T15:28:36Z</time>
      </trkpt>
      <trkpt lat="43.29087" lon="5.64951">
        <ele>190.097656</ele>
        <time>2017-03-25T15:28:44Z</time>
      </trkpt>
      <trkpt lat="43.29087" lon="5.64939">
        <ele>188.5</ele>
        <time>2017-03-25T15:28:52Z</time>
      </trkpt>
      <trkpt lat="43.29089" lon="5.64926">
        <ele>193.449219</ele>
        <time>2017-03-25T15:29:00Z</time>
      </trkpt>
      <trkpt lat="43.29093" lon="5.64914">
        <ele>200.199219</ele>
        <time>2017-03-25T15:29:21Z</time>
      </trkpt>
      <trkpt lat="43.29097" lon="5.64903">
        <ele>198</ele>
        <time>2017-03-25T15:29:28Z</time>
      </trkpt>
      <trkpt lat="43.29099" lon="5.64891">
        <ele>198.898438</ele>
        <time>2017-03-25T15:29:37Z</time>
      </trkpt>
      <trkpt lat="43.29106" lon="5.64881">
        <ele>201.296875</ele>
        <time>2017-03-25T15:29:47Z</time>
      </trkpt>
      <trkpt lat="43.29115" lon="5.64878">
        <ele>202.597656</ele>
        <time>2017-03-25T15:29:54Z</time>
      </trkpt>
      <trkpt lat="43.29122" lon="5.64869">
        <ele>201.597656</ele>
        <time>2017-03-25T15:30:01Z</time>
      </trkpt>
      <trkpt lat="43.29124" lon="5.64857">
        <ele>202</ele>
        <time>2017-03-25T15:30:23Z</time>
      </trkpt>
      <trkpt lat="43.29118" lon="5.64848">
        <ele>201.5</ele>
        <time>2017-03-25T15:30:32Z</time>
      </trkpt>
      <trkpt lat="43.29115" lon="5.64836">
        <ele>200.796875</ele>
        <time>2017-03-25T15:30:40Z</time>
      </trkpt>
      <trkpt lat="43.29118" lon="5.64824">
        <ele>199.597656</ele>
        <time>2017-03-25T15:30:48Z</time>
      </trkpt>
      <trkpt lat="43.29126" lon="5.64818">
        <ele>199.597656</ele>
        <time>2017-03-25T15:30:56Z</time>
      </trkpt>
      <trkpt lat="43.29136" lon="5.64816">
        <ele>201.898438</ele>
        <time>2017-03-25T15:31:05Z</time>
      </trkpt>
      <trkpt lat="43.29145" lon="5.64815">
        <ele>201.699219</ele>
        <time>2017-03-25T15:31:14Z</time>
      </trkpt>
      <trkpt lat="43.29149" lon="5.64804">
        <ele>197.898438</ele>
        <time>2017-03-25T15:31:25Z</time>
      </trkpt>
      <trkpt lat="43.29149" lon="5.6479">
        <ele>195.5</ele>
        <time>2017-03-25T15:31:36Z</time>
      </trkpt>
      <trkpt lat="43.29149" lon="5.64777">
        <ele>193.398438</ele>
        <time>2017-03-25T15:31:46Z</time>
      </trkpt>
      <trkpt lat="43.29152" lon="5.64765">
        <ele>191.398438</ele>
        <time>2017-03-25T15:31:56Z</time>
      </trkpt>
      <trkpt lat="43.29161" lon="5.64767">
        <ele>192.097656</ele>
        <time>2017-03-25T15:32:06Z</time>
      </trkpt>
      <trkpt lat="43.2917" lon="5.64772">
        <ele>192.296875</ele>
        <time>2017-03-25T15:32:13Z</time>
      </trkpt>
      <trkpt lat="43.29179" lon="5.64767">
        <ele>193.199219</ele>
        <time>2017-03-25T15:32:21Z</time>
      </trkpt>
      <trkpt lat="43.29177" lon="5.64755">
        <ele>193.296875</ele>
        <time>2017-03-25T15:32:35Z</time>
      </trkpt>
      <trkpt lat="43.29173" lon="5.64743">
        <ele>192.898438</ele>
        <time>2017-03-25T15:32:46Z</time>
      </trkpt>
      <trkpt lat="43.2917" lon="5.64731">
        <ele>190.5</ele>
        <time>2017-03-25T15:32:53Z</time>
      </trkpt>
      <trkpt lat="43.29168" lon="5.64718">
        <ele>187.398438</ele>
        <time>2017-03-25T15:33:01Z</time>
      </trkpt>
      <trkpt lat="43.29167" lon="5.64705">
        <ele>185.5</ele>
        <time>2017-03-25T15:33:09Z</time>
      </trkpt>
      <trkpt lat="43.29167" lon="5.64692">
        <ele>187.199219</ele>
        <time>2017-03-25T15:33:18Z</time>
      </trkpt>
      <trkpt lat="43.29173" lon="5.6468">
        <ele>187.597656</ele>
        <time>2017-03-25T15:33:25Z</time>
      </trkpt>
      <trkpt lat="43.29177" lon="5.64668">
        <ele>184.699219</ele>
        <time>2017-03-25T15:33:32Z</time>
      </trkpt>
      <trkpt lat="43.29181" lon="5.64656">
        <ele>182.796875</ele>
        <time>2017-03-25T15:33:40Z</time>
      </trkpt>
      <trkpt lat="43.29186" lon="5.64646">
        <ele>182.398438</ele>
        <time>2017-03-25T15:33:48Z</time>
      </trkpt>
      <trkpt lat="43.29189" lon="5.64632">
        <ele>182.597656</ele>
        <time>2017-03-25T15:33:56Z</time>
      </trkpt>
      <trkpt lat="43.2919" lon="5.6462">
        <ele>181.796875</ele>
        <time>2017-03-25T15:34:04Z</time>
      </trkpt>
      <trkpt lat="43.29189" lon="5.64607">
        <ele>183.597656</ele>
        <time>2017-03-25T15:34:14Z</time>
      </trkpt>
      <trkpt lat="43.29184" lon="5.64594">
        <ele>184.597656</ele>
        <time>2017-03-25T15:34:23Z</time>
      </trkpt>
      <trkpt lat="43.29179" lon="5.64584">
        <ele>184.597656</ele>
        <time>2017-03-25T15:34:35Z</time>
      </trkpt>
      <trkpt lat="43.29172" lon="5.64572">
        <ele>181</ele>
        <time>2017-03-25T15:34:49Z</time>
      </trkpt>
      <trkpt lat="43.29168" lon="5.6456">
        <ele>181.699219</ele>
        <time>2017-03-25T15:34:57Z</time>
      </trkpt>
      <trkpt lat="43.29167" lon="5.64547">
        <ele>182.5</ele>
        <time>2017-03-25T15:35:03Z</time>
      </trkpt>
      <trkpt lat="43.29165" lon="5.64535">
        <ele>182.097656</ele>
        <time>2017-03-25T15:35:10Z</time>
      </trkpt>
      <trkpt lat="43.29163" lon="5.64522">
        <ele>182.398438</ele>
        <time>2017-03-25T15:35:19Z</time>
      </trkpt>
      <trkpt lat="43.29156" lon="5.64497">
        <ele>179.796875</ele>
        <time>2017-03-25T15:35:35Z</time>
      </trkpt>
      <trkpt lat="43.29155" lon="5.64484">
        <ele>177</ele>
        <time>2017-03-25T15:35:44Z</time>
      </trkpt>
      <trkpt lat="43.29157" lon="5.64471">
        <ele>173.796875</ele>
        <time>2017-03-25T15:35:52Z</time>
      </trkpt>
      <trkpt lat="43.29161" lon="5.64459">
        <ele>172.898438</ele>
        <time>2017-03-25T15:36:01Z</time>
      </trkpt>
      <trkpt lat="43.29166" lon="5.64448">
        <ele>175.5</ele>
        <time>2017-03-25T15:36:10Z</time>
      </trkpt>
      <trkpt lat="43.2917" lon="5.64435">
        <ele>175.398438</ele>
        <time>2017-03-25T15:36:17Z</time>
      </trkpt>
      <trkpt lat="43.29174" lon="5.64422">
        <ele>176.296875</ele>
        <time>2017-03-25T15:36:25Z</time>
      </trkpt>
      <trkpt lat="43.29184" lon="5.64372">
        <ele>173</ele>
        <time>2017-03-25T15:36:54Z</time>
      </trkpt>
      <trkpt lat="43.2919" lon="5.64362">
        <ele>170.699219</ele>
        <time>2017-03-25T15:37:03Z</time>
      </trkpt>
      <trkpt lat="43.29196" lon="5.6435">
        <ele>169.199219</ele>
        <time>2017-03-25T15:37:11Z</time>
      </trkpt>
      <trkpt lat="43.292" lon="5.64339">
        <ele>169.296875</ele>
        <time>2017-03-25T15:37:18Z</time>
      </trkpt>
      <trkpt lat="43.29204" lon="5.64326">
        <ele>168.597656</ele>
        <time>2017-03-25T15:37:25Z</time>
      </trkpt>
      <trkpt lat="43.29213" lon="5.64288">
        <ele>169.398438</ele>
        <time>2017-03-25T15:37:47Z</time>
      </trkpt>
      <trkpt lat="43.29217" lon="5.64275">
        <ele>169.097656</ele>
        <time>2017-03-25T15:37:55Z</time>
      </trkpt>
      <trkpt lat="43.29226" lon="5.64251">
        <ele>169.796875</ele>
        <time>2017-03-25T15:38:11Z</time>
      </trkpt>
      <trkpt lat="43.29227" lon="5.64237">
        <ele>170</ele>
        <time>2017-03-25T15:38:19Z</time>
      </trkpt>
      <trkpt lat="43.29227" lon="5.64224">
        <ele>166.097656</ele>
        <time>2017-03-25T15:38:29Z</time>
      </trkpt>
      <trkpt lat="43.29231" lon="5.64211">
        <ele>163.097656</ele>
        <time>2017-03-25T15:38:38Z</time>
      </trkpt>
      <trkpt lat="43.29235" lon="5.642">
        <ele>163.296875</ele>
        <time>2017-03-25T15:38:47Z</time>
      </trkpt>
      <trkpt lat="43.29243" lon="5.64193">
        <ele>162.796875</ele>
        <time>2017-03-25T15:38:56Z</time>
      </trkpt>
      <trkpt lat="43.29248" lon="5.64182">
        <ele>164.097656</ele>
        <time>2017-03-25T15:39:03Z</time>
      </trkpt>
      <trkpt lat="43.29253" lon="5.6417">
        <ele>165.699219</ele>
        <time>2017-03-25T15:39:11Z</time>
      </trkpt>
      <trkpt lat="43.29255" lon="5.64158">
        <ele>165.398438</ele>
        <time>2017-03-25T15:39:20Z</time>
      </trkpt>
      <trkpt lat="43.29256" lon="5.64144">
        <ele>165</ele>
        <time>2017-03-25T15:39:28Z</time>
      </trkpt>
      <trkpt lat="43.29257" lon="5.64105">
        <ele>167.296875</ele>
        <time>2017-03-25T15:39:52Z</time>
      </trkpt>
      <trkpt lat="43.2926" lon="5.64092">
        <ele>164.097656</ele>
        <time>2017-03-25T15:40:00Z</time>
      </trkpt>
      <trkpt lat="43.29263" lon="5.6408">
        <ele>162.898438</ele>
        <time>2017-03-25T15:40:08Z</time>
      </trkpt>
      <trkpt lat="43.29266" lon="5.64068">
        <ele>162.699219</ele>
        <time>2017-03-25T15:40:15Z</time>
      </trkpt>
      <trkpt lat="43.29267" lon="5.64055">
        <ele>166.097656</ele>
        <time>2017-03-25T15:40:22Z</time>
      </trkpt>
      <trkpt lat="43.29267" lon="5.64041">
        <ele>167.5</ele>
        <time>2017-03-25T15:40:34Z</time>
      </trkpt>
      <trkpt lat="43.2927" lon="5.64029">
        <ele>167.796875</ele>
        <time>2017-03-25T15:40:41Z</time>
      </trkpt>
      <trkpt lat="43.29275" lon="5.64004">
        <ele>169.199219</ele>
        <time>2017-03-25T15:40:57Z</time>
      </trkpt>
      <trkpt lat="43.29277" lon="5.63991">
        <ele>169.296875</ele>
        <time>2017-03-25T15:41:05Z</time>
      </trkpt>
      <trkpt lat="43.29278" lon="5.63977">
        <ele>168.5</ele>
        <time>2017-03-25T15:41:13Z</time>
      </trkpt>
      <trkpt lat="43.29278" lon="5.63965">
        <ele>168.699219</ele>
        <time>2017-03-25T15:41:21Z</time>
      </trkpt>
      <trkpt lat="43.2928" lon="5.63952">
        <ele>170</ele>
        <time>2017-03-25T15:41:29Z</time>
      </trkpt>
      <trkpt lat="43.29277" lon="5.63939">
        <ele>176.296875</ele>
        <time>2017-03-25T15:41:37Z</time>
      </trkpt>
      <trkpt lat="43.29268" lon="5.63942">
        <ele>177.898438</ele>
        <time>2017-03-25T15:42:09Z</time>
      </trkpt>
      <trkpt lat="43.29259" lon="5.63945">
        <ele>176.296875</ele>
        <time>2017-03-25T15:42:21Z</time>
      </trkpt>
      <trkpt lat="43.29253" lon="5.63955">
        <ele>173.488281</ele>
        <time>2017-03-25T15:42:31Z</time>
      </trkpt>
      <trkpt lat="43.29245" lon="5.63958">
        <ele>175.546875</ele>
        <time>2017-03-25T15:42:48Z</time>
      </trkpt>
      <trkpt lat="43.29235" lon="5.63957">
        <ele>179.097656</ele>
        <time>2017-03-25T15:42:57Z</time>
      </trkpt>
      <trkpt lat="43.29227" lon="5.63952">
        <ele>182.699219</ele>
        <time>2017-03-25T15:43:06Z</time>
      </trkpt>
      <trkpt lat="43.29219" lon="5.63944">
        <ele>183.898438</ele>
        <time>2017-03-25T15:43:17Z</time>
      </trkpt>
      <trkpt lat="43.29212" lon="5.63935">
        <ele>185.597656</ele>
        <time>2017-03-25T15:43:26Z</time>
      </trkpt>
      <trkpt lat="43.29219" lon="5.63926">
        <ele>186.5</ele>
        <time>2017-03-25T15:43:56Z</time>
      </trkpt>
      <trkpt lat="43.29228" lon="5.63922">
        <ele>185.199219</ele>
        <time>2017-03-25T15:44:06Z</time>
      </trkpt>
      <trkpt lat="43.29247" lon="5.63912">
        <ele>184.296875</ele>
        <time>2017-03-25T15:44:26Z</time>
      </trkpt>
      <trkpt lat="43.29255" lon="5.63905">
        <ele>183.296875</ele>
        <time>2017-03-25T15:44:35Z</time>
      </trkpt>
      <trkpt lat="43.29262" lon="5.63896">
        <ele>182.398438</ele>
        <time>2017-03-25T15:44:44Z</time>
      </trkpt>
      <trkpt lat="43.29282" lon="5.63868">
        <ele>179.5</ele>
        <time>2017-03-25T15:45:10Z</time>
      </trkpt>
      <trkpt lat="43.29288" lon="5.63858">
        <ele>178.597656</ele>
        <time>2017-03-25T15:45:20Z</time>
      </trkpt>
      <trkpt lat="43.29293" lon="5.63847">
        <ele>176.898438</ele>
        <time>2017-03-25T15:45:29Z</time>
      </trkpt>
      <trkpt lat="43.29297" lon="5.63834">
        <ele>179.199219</ele>
        <time>2017-03-25T15:45:40Z</time>
      </trkpt>
      <trkpt lat="43.29304" lon="5.63825">
        <ele>181.097656</ele>
        <time>2017-03-25T15:45:53Z</time>
      </trkpt>
      <trkpt lat="43.29317" lon="5.63807">
        <ele>174.296875</ele>
        <time>2017-03-25T15:46:24Z</time>
      </trkpt>
      <trkpt lat="43.29325" lon="5.63799">
        <ele>173.398438</ele>
        <time>2017-03-25T15:46:33Z</time>
      </trkpt>
      <trkpt lat="43.2933" lon="5.63788">
        <ele>174.097656</ele>
        <time>2017-03-25T15:46:43Z</time>
      </trkpt>
      <trkpt lat="43.29333" lon="5.63775">
        <ele>176.296875</ele>
        <time>2017-03-25T15:46:52Z</time>
      </trkpt>
      <trkpt lat="43.29345" lon="5.6371">
        <ele>183.796875</ele>
        <time>2017-03-25T15:47:37Z</time>
      </trkpt>
      <trkpt lat="43.29349" lon="5.63697">
        <ele>183.164063</ele>
        <time>2017-03-25T15:47:45Z</time>
      </trkpt>
      <trkpt lat="43.29353" lon="5.63686">
        <ele>184.398438</ele>
        <time>2017-03-25T15:48:00Z</time>
      </trkpt>
      <trkpt lat="43.29356" lon="5.63671">
        <ele>180.597656</ele>
        <time>2017-03-25T15:48:19Z</time>
      </trkpt>
      <trkpt lat="43.29363" lon="5.63662">
        <ele>180.5</ele>
        <time>2017-03-25T15:48:29Z</time>
      </trkpt>
      <trkpt lat="43.29371" lon="5.63656">
        <ele>182.199219</ele>
        <time>2017-03-25T15:48:37Z</time>
      </trkpt>
      <trkpt lat="43.29379" lon="5.63651">
        <ele>184.5</ele>
        <time>2017-03-25T15:48:46Z</time>
      </trkpt>
      <trkpt lat="43.29388" lon="5.63645">
        <ele>185.5</ele>
        <time>2017-03-25T15:48:55Z</time>
      </trkpt>
      <trkpt lat="43.29396" lon="5.63639">
        <ele>184.5</ele>
        <time>2017-03-25T15:49:03Z</time>
      </trkpt>
      <trkpt lat="43.29403" lon="5.6363">
        <ele>184.5</ele>
        <time>2017-03-25T15:49:12Z</time>
      </trkpt>
      <trkpt lat="43.29411" lon="5.63625">
        <ele>184.296875</ele>
        <time>2017-03-25T15:49:20Z</time>
      </trkpt>
      <trkpt lat="43.29429" lon="5.63615">
        <ele>182.398438</ele>
        <time>2017-03-25T15:49:36Z</time>
      </trkpt>
      <trkpt lat="43.29436" lon="5.63607">
        <ele>180.097656</ele>
        <time>2017-03-25T15:49:45Z</time>
      </trkpt>
      <trkpt lat="43.29442" lon="5.63596">
        <ele>179.898438</ele>
        <time>2017-03-25T15:49:54Z</time>
      </trkpt>
      <trkpt lat="43.29447" lon="5.63584">
        <ele>178.398438</ele>
        <time>2017-03-25T15:50:03Z</time>
      </trkpt>
      <trkpt lat="43.29448" lon="5.63571">
        <ele>175.199219</ele>
        <time>2017-03-25T15:50:12Z</time>
      </trkpt>
      <trkpt lat="43.29447" lon="5.63558">
        <ele>172.296875</ele>
        <time>2017-03-25T15:50:23Z</time>
      </trkpt>
      <trkpt lat="43.29456" lon="5.63552">
        <ele>172</ele>
        <time>2017-03-25T15:50:35Z</time>
      </trkpt>
      <trkpt lat="43.29465" lon="5.63548">
        <ele>167.199219</ele>
        <time>2017-03-25T15:50:47Z</time>
      </trkpt>
      <trkpt lat="43.29476" lon="5.63555">
        <ele>162.398438</ele>
        <time>2017-03-25T15:51:08Z</time>
      </trkpt>
      <trkpt lat="43.29486" lon="5.63549">
        <ele>168.898438</ele>
        <time>2017-03-25T15:51:26Z</time>
      </trkpt>
      <trkpt lat="43.29496" lon="5.6355">
        <ele>201.796875</ele>
        <time>2017-03-25T15:51:44Z</time>
      </trkpt>
      <trkpt lat="43.29498" lon="5.63569">
        <ele>201</ele>
        <time>2017-03-25T15:52:21Z</time>
      </trkpt>
      <trkpt lat="43.29507" lon="5.63567">
        <ele>195.699219</ele>
        <time>2017-03-25T15:52:29Z</time>
      </trkpt>
      <trkpt lat="43.29516" lon="5.6356">
        <ele>186.898438</ele>
        <time>2017-03-25T15:52:36Z</time>
      </trkpt>
      <trkpt lat="43.29523" lon="5.63551">
        <ele>180.898438</ele>
        <time>2017-03-25T15:52:44Z</time>
      </trkpt>
      <trkpt lat="43.29532" lon="5.63545">
        <ele>176.5</ele>
        <time>2017-03-25T15:52:51Z</time>
      </trkpt>
      <trkpt lat="43.29624" lon="5.63476">
        <ele>161.898438</ele>
        <time>2017-03-25T15:54:14Z</time>
      </trkpt>
      <trkpt lat="43.29632" lon="5.63466">
        <ele>162.699219</ele>
        <time>2017-03-25T15:54:22Z</time>
      </trkpt>
      <trkpt lat="43.29636" lon="5.63455">
        <ele>162.296875</ele>
        <time>2017-03-25T15:54:31Z</time>
      </trkpt>
      <trkpt lat="43.29638" lon="5.63442">
        <ele>161.296875</ele>
        <time>2017-03-25T15:54:40Z</time>
      </trkpt>
      <trkpt lat="43.29638" lon="5.63429">
        <ele>162.5</ele>
        <time>2017-03-25T15:54:49Z</time>
      </trkpt>
      <trkpt lat="43.29641" lon="5.63389">
        <ele>164.398438</ele>
        <time>2017-03-25T15:55:14Z</time>
      </trkpt>
      <trkpt lat="43.29643" lon="5.63364">
        <ele>160</ele>
        <time>2017-03-25T15:55:38Z</time>
      </trkpt>
      <trkpt lat="43.29646" lon="5.63351">
        <ele>160.398438</ele>
        <time>2017-03-25T15:55:47Z</time>
      </trkpt>
      <trkpt lat="43.29653" lon="5.63327">
        <ele>159.296875</ele>
        <time>2017-03-25T15:56:03Z</time>
      </trkpt>
      <trkpt lat="43.29655" lon="5.63314">
        <ele>159.699219</ele>
        <time>2017-03-25T15:56:11Z</time>
      </trkpt>
      <trkpt lat="43.29657" lon="5.633">
        <ele>161.699219</ele>
        <time>2017-03-25T15:56:19Z</time>
      </trkpt>
      <trkpt lat="43.29665" lon="5.63292">
        <ele>161.398438</ele>
        <time>2017-03-25T15:56:28Z</time>
      </trkpt>
      <trkpt lat="43.29674" lon="5.63287">
        <ele>161.097656</ele>
        <time>2017-03-25T15:56:36Z</time>
      </trkpt>
      <trkpt lat="43.29682" lon="5.63281">
        <ele>159.296875</ele>
        <time>2017-03-25T15:56:45Z</time>
      </trkpt>
      <trkpt lat="43.29691" lon="5.63273">
        <ele>158.796875</ele>
        <time>2017-03-25T15:56:59Z</time>
      </trkpt>
      <trkpt lat="43.29698" lon="5.63265">
        <ele>157.398438</ele>
        <time>2017-03-25T15:57:07Z</time>
      </trkpt>
      <trkpt lat="43.29705" lon="5.63255">
        <ele>156.097656</ele>
        <time>2017-03-25T15:57:17Z</time>
      </trkpt>
      <trkpt lat="43.29711" lon="5.63245">
        <ele>156.296875</ele>
        <time>2017-03-25T15:57:26Z</time>
      </trkpt>
      <trkpt lat="43.29717" lon="5.63236">
        <ele>156.796875</ele>
        <time>2017-03-25T15:57:33Z</time>
      </trkpt>
      <trkpt lat="43.29723" lon="5.63225">
        <ele>157</ele>
        <time>2017-03-25T15:57:41Z</time>
      </trkpt>
      <trkpt lat="43.29729" lon="5.63215">
        <ele>157.097656</ele>
        <time>2017-03-25T15:57:49Z</time>
      </trkpt>
      <trkpt lat="43.29735" lon="5.63205">
        <ele>157.398438</ele>
        <time>2017-03-25T15:57:57Z</time>
      </trkpt>
      <trkpt lat="43.2974" lon="5.63194">
        <ele>158.898438</ele>
        <time>2017-03-25T15:58:05Z</time>
      </trkpt>
      <trkpt lat="43.29744" lon="5.63183">
        <ele>159</ele>
        <time>2017-03-25T15:58:13Z</time>
      </trkpt>
      <trkpt lat="43.29747" lon="5.63171">
        <ele>157.398438</ele>
        <time>2017-03-25T15:58:21Z</time>
      </trkpt>
      <trkpt lat="43.29747" lon="5.63157">
        <ele>156</ele>
        <time>2017-03-25T15:58:30Z</time>
      </trkpt>
      <trkpt lat="43.29746" lon="5.63145">
        <ele>154</ele>
        <time>2017-03-25T15:58:38Z</time>
      </trkpt>
      <trkpt lat="43.29742" lon="5.63132">
        <ele>153.796875</ele>
        <time>2017-03-25T15:58:47Z</time>
      </trkpt>
      <trkpt lat="43.29736" lon="5.63123">
        <ele>163.199219</ele>
        <time>2017-03-25T15:58:55Z</time>
      </trkpt>
      <trkpt lat="43.2973" lon="5.63112">
        <ele>165.5</ele>
        <time>2017-03-25T15:59:09Z</time>
      </trkpt>
      <trkpt lat="43.29725" lon="5.63101">
        <ele>164.796875</ele>
        <time>2017-03-25T15:59:19Z</time>
      </trkpt>
      <trkpt lat="43.29721" lon="5.63089">
        <ele>161.398438</ele>
        <time>2017-03-25T15:59:28Z</time>
      </trkpt>
      <trkpt lat="43.29708" lon="5.63053">
        <ele>159.398438</ele>
        <time>2017-03-25T15:59:54Z</time>
      </trkpt>
      <trkpt lat="43.29706" lon="5.63039">
        <ele>160.296875</ele>
        <time>2017-03-25T16:00:01Z</time>
      </trkpt>
      <trkpt lat="43.29706" lon="5.63025">
        <ele>160.796875</ele>
        <time>2017-03-25T16:00:08Z</time>
      </trkpt>
      <trkpt lat="43.29704" lon="5.63012">
        <ele>155.398438</ele>
        <time>2017-03-25T16:00:15Z</time>
      </trkpt>
      <trkpt lat="43.29704" lon="5.62998">
        <ele>150</ele>
        <time>2017-03-25T16:00:23Z</time>
      </trkpt>
      <trkpt lat="43.29705" lon="5.62985">
        <ele>146</ele>
        <time>2017-03-25T16:00:30Z</time>
      </trkpt>
      <trkpt lat="43.29705" lon="5.62971">
        <ele>144.398438</ele>
        <time>2017-03-25T16:00:37Z</time>
      </trkpt>
      <trkpt lat="43.29707" lon="5.62958">
        <ele>143.398438</ele>
        <time>2017-03-25T16:00:42Z</time>
      </trkpt>
      <trkpt lat="43.29709" lon="5.62945">
        <ele>143.796875</ele>
        <time>2017-03-25T16:00:47Z</time>
      </trkpt>
      <trkpt lat="43.29711" lon="5.62923">
        <ele>148.578125</ele>
        <time>2017-03-25T16:01:48Z</time>
      </trkpt>
    </trkseg>
  </trk>
</gpx>